<?xml version="1.0" encoding="UTF-8" standalone="no" ?>
<gpx xmlns="http://www.topografix.com/GPX/1/1" xmlns:xsi="http://www.w3.org/2001/XMLSchema-instance" xsi:schemaLocation="http://www.topografix.com/GPX/1/1 http://www.topografix.com/GPX/1/1/gpx.xsd" version="1.1" creator="VisuGPX - https://www.visugpx.com">
  <metadata>
    <name>DT 15 - Lapanouse</name>
  </metadata>
  <trk>
    <name><![CDATA[Lapanouse sur TraceDeTrail.fr]]></name>
    <trkseg>
      <trkpt lat="44.33749" lon="3.0287">
        <ele>641</ele>
        <time>2020-02-14T08:38:08.000Z</time>
      </trkpt>
      <trkpt lat="44.3375" lon="3.02857">
        <ele>648</ele>
        <time>2020-02-14T08:38:18.000Z</time>
      </trkpt>
      <trkpt lat="44.3375" lon="3.02824">
        <ele>641</ele>
        <time>2020-02-14T08:40:57.000Z</time>
      </trkpt>
      <trkpt lat="44.33748" lon="3.02802">
        <ele>649.3</ele>
        <time>2020-02-14T08:41:07.000Z</time>
      </trkpt>
      <trkpt lat="44.33743" lon="3.02781">
        <ele>641</ele>
        <time>2020-02-14T08:41:26.000Z</time>
      </trkpt>
      <trkpt lat="44.33742" lon="3.02766">
        <ele>650.9</ele>
        <time>2020-02-14T08:41:36.000Z</time>
      </trkpt>
      <trkpt lat="44.33743" lon="3.02765">
        <ele>650.8</ele>
        <time>2020-02-14T08:41:46.000Z</time>
      </trkpt>
      <trkpt lat="44.33766" lon="3.02758">
        <ele>640</ele>
        <time>2020-02-14T08:49:05.000Z</time>
      </trkpt>
      <trkpt lat="44.3378" lon="3.0276">
        <ele>651</ele>
        <time>2020-02-14T08:49:15.000Z</time>
      </trkpt>
      <trkpt lat="44.33799" lon="3.02756">
        <ele>640</ele>
        <time>2020-02-14T08:49:36.000Z</time>
      </trkpt>
      <trkpt lat="44.33809" lon="3.02752">
        <ele>650.9</ele>
        <time>2020-02-14T08:49:46.000Z</time>
      </trkpt>
      <trkpt lat="44.33829" lon="3.02748">
        <ele>640</ele>
        <time>2020-02-14T08:51:06.000Z</time>
      </trkpt>
      <trkpt lat="44.33842" lon="3.02737">
        <ele>651.3</ele>
        <time>2020-02-14T08:51:16.000Z</time>
      </trkpt>
      <trkpt lat="44.33848" lon="3.02723">
        <ele>640</ele>
        <time>2020-02-14T08:51:32.000Z</time>
      </trkpt>
      <trkpt lat="44.33849" lon="3.0271">
        <ele>652.6</ele>
        <time>2020-02-14T08:51:42.000Z</time>
      </trkpt>
      <trkpt lat="44.33852" lon="3.02695">
        <ele>644</ele>
        <time>2020-02-14T08:51:46.000Z</time>
      </trkpt>
      <trkpt lat="44.33853" lon="3.02687">
        <ele>653.6</ele>
        <time>2020-02-14T08:51:56.000Z</time>
      </trkpt>
      <trkpt lat="44.33857" lon="3.02675">
        <ele>653.8</ele>
        <time>2020-02-14T08:52:06.000Z</time>
      </trkpt>
      <trkpt lat="44.33856" lon="3.02664">
        <ele>647</ele>
        <time>2020-02-14T08:54:03.000Z</time>
      </trkpt>
      <trkpt lat="44.33861" lon="3.02644">
        <ele>654.8</ele>
        <time>2020-02-14T08:54:13.000Z</time>
      </trkpt>
      <trkpt lat="44.33867" lon="3.02612">
        <ele>649</ele>
        <time>2020-02-14T08:55:08.000Z</time>
      </trkpt>
      <trkpt lat="44.33875" lon="3.02579">
        <ele>650</ele>
        <time>2020-02-14T08:55:28.000Z</time>
      </trkpt>
      <trkpt lat="44.33876" lon="3.02554">
        <ele>656.4</ele>
        <time>2020-02-14T08:55:38.000Z</time>
      </trkpt>
      <trkpt lat="44.33878" lon="3.02539">
        <ele>652</ele>
        <time>2020-02-14T08:56:35.000Z</time>
      </trkpt>
      <trkpt lat="44.33888" lon="3.02478">
        <ele>652</ele>
        <time>2020-02-14T08:57:15.000Z</time>
      </trkpt>
      <trkpt lat="44.33897" lon="3.02452">
        <ele>653</ele>
        <time>2020-02-14T08:57:25.000Z</time>
      </trkpt>
      <trkpt lat="44.33896" lon="3.02424">
        <ele>653</ele>
        <time>2020-02-14T08:57:35.000Z</time>
      </trkpt>
      <trkpt lat="44.33893" lon="3.02396">
        <ele>652</ele>
        <time>2020-02-14T08:57:45.000Z</time>
      </trkpt>
      <trkpt lat="44.33879" lon="3.02364">
        <ele>651</ele>
        <time>2020-02-14T08:57:55.000Z</time>
      </trkpt>
      <trkpt lat="44.33862" lon="3.02328">
        <ele>650</ele>
        <time>2020-02-14T08:58:05.000Z</time>
      </trkpt>
      <trkpt lat="44.33853" lon="3.02302">
        <ele>650</ele>
        <time>2020-02-14T08:58:15.000Z</time>
      </trkpt>
      <trkpt lat="44.33844" lon="3.02268">
        <ele>650</ele>
        <time>2020-02-14T08:58:25.000Z</time>
      </trkpt>
      <trkpt lat="44.33839" lon="3.02245">
        <ele>655.7</ele>
        <time>2020-02-14T08:58:35.000Z</time>
      </trkpt>
      <trkpt lat="44.33829" lon="3.02221">
        <ele>650</ele>
        <time>2020-02-14T08:58:45.000Z</time>
      </trkpt>
      <trkpt lat="44.33809" lon="3.02183">
        <ele>650</ele>
        <time>2020-02-14T08:58:55.000Z</time>
      </trkpt>
      <trkpt lat="44.33795" lon="3.02155">
        <ele>649</ele>
        <time>2020-02-14T08:59:05.000Z</time>
      </trkpt>
      <trkpt lat="44.33788" lon="3.02131">
        <ele>653.6</ele>
        <time>2020-02-14T08:59:15.000Z</time>
      </trkpt>
      <trkpt lat="44.33782" lon="3.02114">
        <ele>649</ele>
        <time>2020-02-14T08:59:25.000Z</time>
      </trkpt>
      <trkpt lat="44.33777" lon="3.02081">
        <ele>650</ele>
        <time>2020-02-14T08:59:35.000Z</time>
      </trkpt>
      <trkpt lat="44.33773" lon="3.02047">
        <ele>652</ele>
        <time>2020-02-14T08:59:55.000Z</time>
      </trkpt>
      <trkpt lat="44.33772" lon="3.02017">
        <ele>651</ele>
        <time>2020-02-14T09:00:05.000Z</time>
      </trkpt>
      <trkpt lat="44.33769" lon="3.01997">
        <ele>656.4</ele>
        <time>2020-02-14T09:00:15.000Z</time>
      </trkpt>
      <trkpt lat="44.33769" lon="3.01958">
        <ele>650</ele>
        <time>2020-02-14T09:00:35.000Z</time>
      </trkpt>
      <trkpt lat="44.33773" lon="3.01934">
        <ele>657</ele>
        <time>2020-02-14T09:00:45.000Z</time>
      </trkpt>
      <trkpt lat="44.3377" lon="3.01914">
        <ele>650</ele>
        <time>2020-02-14T09:01:15.000Z</time>
      </trkpt>
      <trkpt lat="44.33761" lon="3.01905">
        <ele>657.9</ele>
        <time>2020-02-14T09:01:25.000Z</time>
      </trkpt>
      <trkpt lat="44.33751" lon="3.01891">
        <ele>647</ele>
        <time>2020-02-14T09:01:55.000Z</time>
      </trkpt>
      <trkpt lat="44.33745" lon="3.0188">
        <ele>657.2</ele>
        <time>2020-02-14T09:02:05.000Z</time>
      </trkpt>
      <trkpt lat="44.33751" lon="3.01865">
        <ele>647</ele>
        <time>2020-02-14T09:02:35.000Z</time>
      </trkpt>
      <trkpt lat="44.33766" lon="3.01847">
        <ele>648</ele>
        <time>2020-02-14T09:02:55.000Z</time>
      </trkpt>
      <trkpt lat="44.33779" lon="3.01823">
        <ele>648</ele>
        <time>2020-02-14T09:03:15.000Z</time>
      </trkpt>
      <trkpt lat="44.33789" lon="3.01806">
        <ele>660</ele>
        <time>2020-02-14T09:03:25.000Z</time>
      </trkpt>
      <trkpt lat="44.33796" lon="3.01786">
        <ele>649</ele>
        <time>2020-02-14T09:03:55.000Z</time>
      </trkpt>
      <trkpt lat="44.33801" lon="3.01763">
        <ele>660.6</ele>
        <time>2020-02-14T09:04:05.000Z</time>
      </trkpt>
      <trkpt lat="44.33813" lon="3.01736">
        <ele>653</ele>
        <time>2020-02-14T09:04:35.000Z</time>
      </trkpt>
      <trkpt lat="44.3382" lon="3.01722">
        <ele>660.5</ele>
        <time>2020-02-14T09:04:45.000Z</time>
      </trkpt>
      <trkpt lat="44.33827" lon="3.01711">
        <ele>654</ele>
        <time>2020-02-14T09:04:55.000Z</time>
      </trkpt>
      <trkpt lat="44.33833" lon="3.01696">
        <ele>660.9</ele>
        <time>2020-02-14T09:05:05.000Z</time>
      </trkpt>
      <trkpt lat="44.33847" lon="3.01671">
        <ele>655</ele>
        <time>2020-02-14T09:05:25.000Z</time>
      </trkpt>
      <trkpt lat="44.33852" lon="3.01659">
        <ele>660.5</ele>
        <time>2020-02-14T09:05:35.000Z</time>
      </trkpt>
      <trkpt lat="44.3386" lon="3.01646">
        <ele>655</ele>
        <time>2020-02-14T09:05:45.000Z</time>
      </trkpt>
      <trkpt lat="44.33876" lon="3.01615">
        <ele>654</ele>
        <time>2020-02-14T09:06:15.000Z</time>
      </trkpt>
      <trkpt lat="44.33882" lon="3.01602">
        <ele>660.8</ele>
        <time>2020-02-14T09:06:25.000Z</time>
      </trkpt>
      <trkpt lat="44.33894" lon="3.01573">
        <ele>654</ele>
        <time>2020-02-14T09:06:55.000Z</time>
      </trkpt>
      <trkpt lat="44.33904" lon="3.01553">
        <ele>661.6</ele>
        <time>2020-02-14T09:07:05.000Z</time>
      </trkpt>
      <trkpt lat="44.33919" lon="3.01527">
        <ele>654</ele>
        <time>2020-02-14T09:07:45.000Z</time>
      </trkpt>
      <trkpt lat="44.33912" lon="3.01515">
        <ele>663.9</ele>
        <time>2020-02-14T09:07:55.000Z</time>
      </trkpt>
      <trkpt lat="44.33902" lon="3.01509">
        <ele>654</ele>
        <time>2020-02-14T09:08:25.000Z</time>
      </trkpt>
      <trkpt lat="44.33877" lon="3.01492">
        <ele>656</ele>
        <time>2020-02-14T09:09:05.000Z</time>
      </trkpt>
      <trkpt lat="44.33871" lon="3.01486">
        <ele>664.3</ele>
        <time>2020-02-14T09:09:15.000Z</time>
      </trkpt>
      <trkpt lat="44.33825" lon="3.01449">
        <ele>665</ele>
        <time>2020-02-14T09:23:37.000Z</time>
      </trkpt>
      <trkpt lat="44.33804" lon="3.01426">
        <ele>668</ele>
        <time>2020-02-14T09:23:59.000Z</time>
      </trkpt>
      <trkpt lat="44.33794" lon="3.01413">
        <ele>673.3</ele>
        <time>2020-02-14T09:24:09.000Z</time>
      </trkpt>
      <trkpt lat="44.3378" lon="3.01399">
        <ele>676</ele>
        <time>2020-02-14T09:24:27.000Z</time>
      </trkpt>
      <trkpt lat="44.33773" lon="3.0139">
        <ele>678.3</ele>
        <time>2020-02-14T09:24:37.000Z</time>
      </trkpt>
      <trkpt lat="44.33758" lon="3.01362">
        <ele>682</ele>
        <time>2020-02-14T09:25:05.000Z</time>
      </trkpt>
      <trkpt lat="44.33752" lon="3.01347">
        <ele>686</ele>
        <time>2020-02-14T09:25:15.000Z</time>
      </trkpt>
      <trkpt lat="44.33731" lon="3.01325">
        <ele>687</ele>
        <time>2020-02-14T09:25:36.000Z</time>
      </trkpt>
      <trkpt lat="44.33719" lon="3.01316">
        <ele>693.9</ele>
        <time>2020-02-14T09:25:46.000Z</time>
      </trkpt>
      <trkpt lat="44.33704" lon="3.01306">
        <ele>694</ele>
        <time>2020-02-14T09:26:06.000Z</time>
      </trkpt>
      <trkpt lat="44.33694" lon="3.01296">
        <ele>697.7</ele>
        <time>2020-02-14T09:26:16.000Z</time>
      </trkpt>
      <trkpt lat="44.33685" lon="3.01289">
        <ele>698</ele>
        <time>2020-02-14T09:26:30.000Z</time>
      </trkpt>
      <trkpt lat="44.33678" lon="3.01281">
        <ele>699.3</ele>
        <time>2020-02-14T09:26:40.000Z</time>
      </trkpt>
      <trkpt lat="44.33652" lon="3.01258">
        <ele>698</ele>
        <time>2020-02-14T09:27:00.000Z</time>
      </trkpt>
      <trkpt lat="44.33631" lon="3.01244">
        <ele>698</ele>
        <time>2020-02-14T09:27:18.000Z</time>
      </trkpt>
      <trkpt lat="44.33598" lon="3.01206">
        <ele>711</ele>
        <time>2020-02-14T09:27:56.000Z</time>
      </trkpt>
      <trkpt lat="44.33579" lon="3.01183">
        <ele>713</ele>
        <time>2020-02-14T09:28:18.000Z</time>
      </trkpt>
      <trkpt lat="44.33558" lon="3.01161">
        <ele>717</ele>
        <time>2020-02-14T09:28:28.000Z</time>
      </trkpt>
      <trkpt lat="44.33534" lon="3.01136">
        <ele>724</ele>
        <time>2020-02-14T09:29:10.000Z</time>
      </trkpt>
      <trkpt lat="44.33526" lon="3.01124">
        <ele>723</ele>
        <time>2020-02-14T09:29:20.000Z</time>
      </trkpt>
      <trkpt lat="44.33521" lon="3.01113">
        <ele>726</ele>
        <time>2020-02-14T09:29:46.000Z</time>
      </trkpt>
      <trkpt lat="44.335" lon="3.01089">
        <ele>729</ele>
        <time>2020-02-14T09:31:05.000Z</time>
      </trkpt>
      <trkpt lat="44.33489" lon="3.0108">
        <ele>729.7</ele>
        <time>2020-02-14T09:31:15.000Z</time>
      </trkpt>
      <trkpt lat="44.33476" lon="3.01065">
        <ele>735</ele>
        <time>2020-02-14T09:31:32.000Z</time>
      </trkpt>
      <trkpt lat="44.33466" lon="3.01057">
        <ele>734</ele>
        <time>2020-02-14T09:31:42.000Z</time>
      </trkpt>
      <trkpt lat="44.33423" lon="3.01007">
        <ele>741</ele>
        <time>2020-02-14T09:32:30.000Z</time>
      </trkpt>
      <trkpt lat="44.33413" lon="3.00999">
        <ele>740.1</ele>
        <time>2020-02-14T09:32:40.000Z</time>
      </trkpt>
      <trkpt lat="44.33399" lon="3.00985">
        <ele>742</ele>
        <time>2020-02-14T09:32:50.000Z</time>
      </trkpt>
      <trkpt lat="44.33391" lon="3.00978">
        <ele>740.4</ele>
        <time>2020-02-14T09:33:00.000Z</time>
      </trkpt>
      <trkpt lat="44.33373" lon="3.00966">
        <ele>743</ele>
        <time>2020-02-14T09:33:10.000Z</time>
      </trkpt>
      <trkpt lat="44.33361" lon="3.00952">
        <ele>741.5</ele>
        <time>2020-02-14T09:33:20.000Z</time>
      </trkpt>
      <trkpt lat="44.3334" lon="3.00938">
        <ele>750</ele>
        <time>2020-02-14T09:33:38.000Z</time>
      </trkpt>
      <trkpt lat="44.33325" lon="3.00933">
        <ele>746.9</ele>
        <time>2020-02-14T09:33:48.000Z</time>
      </trkpt>
      <trkpt lat="44.33314" lon="3.00926">
        <ele>749</ele>
        <time>2020-02-14T09:34:03.000Z</time>
      </trkpt>
      <trkpt lat="44.33297" lon="3.00917">
        <ele>757.8</ele>
        <time>2020-02-14T09:34:13.000Z</time>
      </trkpt>
      <trkpt lat="44.33267" lon="3.00922">
        <ele>749</ele>
        <time>2020-02-14T09:34:53.000Z</time>
      </trkpt>
      <trkpt lat="44.33228" lon="3.00933">
        <ele>749</ele>
        <time>2020-02-14T09:35:31.000Z</time>
      </trkpt>
      <trkpt lat="44.33205" lon="3.00944">
        <ele>750</ele>
        <time>2020-02-14T09:35:41.000Z</time>
      </trkpt>
      <trkpt lat="44.3318" lon="3.00955">
        <ele>752</ele>
        <time>2020-02-14T09:35:59.000Z</time>
      </trkpt>
      <trkpt lat="44.33168" lon="3.00964">
        <ele>761.9</ele>
        <time>2020-02-14T09:36:09.000Z</time>
      </trkpt>
      <trkpt lat="44.33127" lon="3.00992">
        <ele>758</ele>
        <time>2020-02-14T09:36:41.000Z</time>
      </trkpt>
      <trkpt lat="44.33091" lon="3.01026">
        <ele>759</ele>
        <time>2020-02-14T09:37:13.000Z</time>
      </trkpt>
      <trkpt lat="44.3308" lon="3.01033">
        <ele>766.1</ele>
        <time>2020-02-14T09:37:23.000Z</time>
      </trkpt>
      <trkpt lat="44.33071" lon="3.01037">
        <ele>759</ele>
        <time>2020-02-14T09:37:34.000Z</time>
      </trkpt>
      <trkpt lat="44.33043" lon="3.01056">
        <ele>759</ele>
        <time>2020-02-14T09:38:01.000Z</time>
      </trkpt>
      <trkpt lat="44.33014" lon="3.01078">
        <ele>759</ele>
        <time>2020-02-14T09:39:07.000Z</time>
      </trkpt>
      <trkpt lat="44.32987" lon="3.01106">
        <ele>760</ele>
        <time>2020-02-14T09:39:31.000Z</time>
      </trkpt>
      <trkpt lat="44.32976" lon="3.0111">
        <ele>770.4</ele>
        <time>2020-02-14T09:39:41.000Z</time>
      </trkpt>
      <trkpt lat="44.32966" lon="3.01097">
        <ele>763</ele>
        <time>2020-02-14T09:40:15.000Z</time>
      </trkpt>
      <trkpt lat="44.32962" lon="3.01085">
        <ele>773.6</ele>
        <time>2020-02-14T09:40:25.000Z</time>
      </trkpt>
      <trkpt lat="44.32953" lon="3.01078">
        <ele>767</ele>
        <time>2020-02-14T09:40:35.000Z</time>
      </trkpt>
      <trkpt lat="44.32941" lon="3.01085">
        <ele>774.8</ele>
        <time>2020-02-14T09:40:45.000Z</time>
      </trkpt>
      <trkpt lat="44.32923" lon="3.01103">
        <ele>767</ele>
        <time>2020-02-14T09:40:29.000Z</time>
      </trkpt>
      <trkpt lat="44.32899" lon="3.01122">
        <ele>767</ele>
        <time>2020-02-14T09:40:49.000Z</time>
      </trkpt>
      <trkpt lat="44.32879" lon="3.01139">
        <ele>767</ele>
        <time>2020-02-14T09:41:07.000Z</time>
      </trkpt>
      <trkpt lat="44.32872" lon="3.01148">
        <ele>772.8</ele>
        <time>2020-02-14T09:41:17.000Z</time>
      </trkpt>
      <trkpt lat="44.32846" lon="3.01169">
        <ele>767</ele>
        <time>2020-02-14T09:41:59.000Z</time>
      </trkpt>
      <trkpt lat="44.3282" lon="3.01193">
        <ele>767</ele>
        <time>2020-02-14T09:42:15.000Z</time>
      </trkpt>
      <trkpt lat="44.32811" lon="3.01205">
        <ele>775.6</ele>
        <time>2020-02-14T09:42:25.000Z</time>
      </trkpt>
      <trkpt lat="44.32808" lon="3.0122">
        <ele>768</ele>
        <time>2020-02-14T09:42:31.000Z</time>
      </trkpt>
      <trkpt lat="44.32804" lon="3.01233">
        <ele>777</ele>
        <time>2020-02-14T09:42:41.000Z</time>
      </trkpt>
      <trkpt lat="44.32787" lon="3.01259">
        <ele>769</ele>
        <time>2020-02-14T09:42:49.000Z</time>
      </trkpt>
      <trkpt lat="44.32763" lon="3.01278">
        <ele>772</ele>
        <time>2020-02-14T09:42:59.000Z</time>
      </trkpt>
      <trkpt lat="44.32732" lon="3.01304">
        <ele>776</ele>
        <time>2020-02-14T09:43:35.000Z</time>
      </trkpt>
      <trkpt lat="44.327" lon="3.01327">
        <ele>776</ele>
        <time>2020-02-14T09:43:59.000Z</time>
      </trkpt>
      <trkpt lat="44.32678" lon="3.01347">
        <ele>778</ele>
        <time>2020-02-14T09:44:18.000Z</time>
      </trkpt>
      <trkpt lat="44.32651" lon="3.01365">
        <ele>778</ele>
        <time>2020-02-14T09:44:38.000Z</time>
      </trkpt>
      <trkpt lat="44.32631" lon="3.01386">
        <ele>778</ele>
        <time>2020-02-14T09:45:02.000Z</time>
      </trkpt>
      <trkpt lat="44.32623" lon="3.01391">
        <ele>785</ele>
        <time>2020-02-14T09:45:12.000Z</time>
      </trkpt>
      <trkpt lat="44.326" lon="3.01409">
        <ele>778</ele>
        <time>2020-02-14T09:47:09.000Z</time>
      </trkpt>
      <trkpt lat="44.32587" lon="3.01421">
        <ele>785.9</ele>
        <time>2020-02-14T09:47:19.000Z</time>
      </trkpt>
      <trkpt lat="44.32577" lon="3.01426">
        <ele>778</ele>
        <time>2020-02-14T09:47:29.000Z</time>
      </trkpt>
      <trkpt lat="44.32566" lon="3.01427">
        <ele>786</ele>
        <time>2020-02-14T09:47:39.000Z</time>
      </trkpt>
      <trkpt lat="44.32546" lon="3.01427">
        <ele>778</ele>
        <time>2020-02-14T09:47:52.000Z</time>
      </trkpt>
      <trkpt lat="44.32535" lon="3.01424">
        <ele>786.7</ele>
        <time>2020-02-14T09:48:02.000Z</time>
      </trkpt>
      <trkpt lat="44.32513" lon="3.01421">
        <ele>782</ele>
        <time>2020-02-14T09:48:16.000Z</time>
      </trkpt>
      <trkpt lat="44.32477" lon="3.01412">
        <ele>783</ele>
        <time>2020-02-14T09:48:44.000Z</time>
      </trkpt>
      <trkpt lat="44.32464" lon="3.01402">
        <ele>788.6</ele>
        <time>2020-02-14T09:48:54.000Z</time>
      </trkpt>
      <trkpt lat="44.32464" lon="3.01382">
        <ele>783</ele>
        <time>2020-02-14T09:56:43.000Z</time>
      </trkpt>
      <trkpt lat="44.32463" lon="3.01361">
        <ele>789.4</ele>
        <time>2020-02-14T09:56:53.000Z</time>
      </trkpt>
      <trkpt lat="44.32459" lon="3.01341">
        <ele>785</ele>
        <time>2020-02-14T09:56:54.000Z</time>
      </trkpt>
      <trkpt lat="44.3246" lon="3.01321">
        <ele>793.2</ele>
        <time>2020-02-14T09:57:04.000Z</time>
      </trkpt>
      <trkpt lat="44.3246" lon="3.01307">
        <ele>785</ele>
        <time>2020-02-14T09:58:59.000Z</time>
      </trkpt>
      <trkpt lat="44.32464" lon="3.0129">
        <ele>795</ele>
        <time>2020-02-14T09:59:09.000Z</time>
      </trkpt>
      <trkpt lat="44.32468" lon="3.01265">
        <ele>786</ele>
        <time>2020-02-14T09:59:23.000Z</time>
      </trkpt>
      <trkpt lat="44.32472" lon="3.01235">
        <ele>786</ele>
        <time>2020-02-14T09:59:41.000Z</time>
      </trkpt>
      <trkpt lat="44.32474" lon="3.01201">
        <ele>786</ele>
        <time>2020-02-14T09:59:59.000Z</time>
      </trkpt>
      <trkpt lat="44.32476" lon="3.01182">
        <ele>797.3</ele>
        <time>2020-02-14T10:00:09.000Z</time>
      </trkpt>
      <trkpt lat="44.32479" lon="3.01167">
        <ele>786</ele>
        <time>2020-02-14T10:00:17.000Z</time>
      </trkpt>
      <trkpt lat="44.32492" lon="3.01126">
        <ele>783</ele>
        <time>2020-02-14T10:00:39.000Z</time>
      </trkpt>
      <trkpt lat="44.32497" lon="3.01107">
        <ele>795.3</ele>
        <time>2020-02-14T10:00:49.000Z</time>
      </trkpt>
      <trkpt lat="44.325" lon="3.01075">
        <ele>782</ele>
        <time>2020-02-14T10:01:05.000Z</time>
      </trkpt>
      <trkpt lat="44.325" lon="3.01012">
        <ele>777</ele>
        <time>2020-02-14T10:01:39.000Z</time>
      </trkpt>
      <trkpt lat="44.32501" lon="3.00974">
        <ele>777</ele>
        <time>2020-02-14T10:01:57.000Z</time>
      </trkpt>
      <trkpt lat="44.32504" lon="3.00955">
        <ele>787.9</ele>
        <time>2020-02-14T10:02:07.000Z</time>
      </trkpt>
      <trkpt lat="44.3251" lon="3.00937">
        <ele>778</ele>
        <time>2020-02-14T10:02:17.000Z</time>
      </trkpt>
      <trkpt lat="44.32519" lon="3.00922">
        <ele>788.4</ele>
        <time>2020-02-14T10:02:27.000Z</time>
      </trkpt>
      <trkpt lat="44.32535" lon="3.00922">
        <ele>777</ele>
        <time>2020-02-14T10:06:59.000Z</time>
      </trkpt>
      <trkpt lat="44.32562" lon="3.00917">
        <ele>776</ele>
        <time>2020-02-14T10:08:52.000Z</time>
      </trkpt>
      <trkpt lat="44.32572" lon="3.00914">
        <ele>787.9</ele>
        <time>2020-02-14T10:09:02.000Z</time>
      </trkpt>
      <trkpt lat="44.32598" lon="3.00884">
        <ele>777</ele>
        <time>2020-02-14T10:26:22.000Z</time>
      </trkpt>
      <trkpt lat="44.32614" lon="3.00847">
        <ele>778</ele>
        <time>2020-02-14T10:26:37.000Z</time>
      </trkpt>
      <trkpt lat="44.32638" lon="3.00796">
        <ele>779</ele>
        <time>2020-02-14T10:27:09.000Z</time>
      </trkpt>
      <trkpt lat="44.32646" lon="3.00776">
        <ele>786.5</ele>
        <time>2020-02-14T10:27:19.000Z</time>
      </trkpt>
      <trkpt lat="44.32659" lon="3.00736">
        <ele>777</ele>
        <time>2020-02-14T10:27:43.000Z</time>
      </trkpt>
      <trkpt lat="44.32665" lon="3.00711">
        <ele>784.6</ele>
        <time>2020-02-14T10:27:53.000Z</time>
      </trkpt>
      <trkpt lat="44.32672" lon="3.00693">
        <ele>777</ele>
        <time>2020-02-14T10:28:05.000Z</time>
      </trkpt>
      <trkpt lat="44.32681" lon="3.00675">
        <ele>784.5</ele>
        <time>2020-02-14T10:28:15.000Z</time>
      </trkpt>
      <trkpt lat="44.327" lon="3.00644">
        <ele>777</ele>
        <time>2020-02-14T10:28:35.000Z</time>
      </trkpt>
      <trkpt lat="44.32708" lon="3.00626">
        <ele>785.5</ele>
        <time>2020-02-14T10:28:45.000Z</time>
      </trkpt>
      <trkpt lat="44.32715" lon="3.00612">
        <ele>777</ele>
        <time>2020-02-14T10:28:53.000Z</time>
      </trkpt>
      <trkpt lat="44.32722" lon="3.00594">
        <ele>785.6</ele>
        <time>2020-02-14T10:29:03.000Z</time>
      </trkpt>
      <trkpt lat="44.32731" lon="3.00562">
        <ele>777</ele>
        <time>2020-02-14T10:29:19.000Z</time>
      </trkpt>
      <trkpt lat="44.32742" lon="3.00519">
        <ele>781</ele>
        <time>2020-02-14T10:29:41.000Z</time>
      </trkpt>
      <trkpt lat="44.32749" lon="3.00486">
        <ele>781</ele>
        <time>2020-02-14T10:29:51.000Z</time>
      </trkpt>
      <trkpt lat="44.32757" lon="3.00451">
        <ele>779</ele>
        <time>2020-02-14T10:30:15.000Z</time>
      </trkpt>
      <trkpt lat="44.32765" lon="3.00419">
        <ele>779</ele>
        <time>2020-02-14T10:30:25.000Z</time>
      </trkpt>
      <trkpt lat="44.32774" lon="3.00386">
        <ele>779</ele>
        <time>2020-02-14T10:30:49.000Z</time>
      </trkpt>
      <trkpt lat="44.32778" lon="3.00368">
        <ele>784</ele>
        <time>2020-02-14T10:30:59.000Z</time>
      </trkpt>
      <trkpt lat="44.32783" lon="3.0035">
        <ele>778</ele>
        <time>2020-02-14T10:31:48.000Z</time>
      </trkpt>
      <trkpt lat="44.3279" lon="3.0033">
        <ele>784.1</ele>
        <time>2020-02-14T10:31:58.000Z</time>
      </trkpt>
      <trkpt lat="44.32798" lon="3.00298">
        <ele>778</ele>
        <time>2020-02-14T10:32:28.000Z</time>
      </trkpt>
      <trkpt lat="44.32806" lon="3.00248">
        <ele>777</ele>
        <time>2020-02-14T10:32:44.000Z</time>
      </trkpt>
      <trkpt lat="44.32811" lon="3.00228">
        <ele>782.4</ele>
        <time>2020-02-14T10:32:54.000Z</time>
      </trkpt>
      <trkpt lat="44.3282" lon="3.00211">
        <ele>777</ele>
        <time>2020-02-14T10:33:10.000Z</time>
      </trkpt>
      <trkpt lat="44.32828" lon="3.00201">
        <ele>783.4</ele>
        <time>2020-02-14T10:33:20.000Z</time>
      </trkpt>
      <trkpt lat="44.32838" lon="3.00191">
        <ele>777</ele>
        <time>2020-02-14T10:33:22.000Z</time>
      </trkpt>
      <trkpt lat="44.32842" lon="3.00185">
        <ele>785.3</ele>
        <time>2020-02-14T10:33:32.000Z</time>
      </trkpt>
      <trkpt lat="44.32864" lon="3.00159">
        <ele>780</ele>
        <time>2020-02-14T10:34:38.000Z</time>
      </trkpt>
      <trkpt lat="44.32871" lon="3.00148">
        <ele>789.1</ele>
        <time>2020-02-14T10:34:48.000Z</time>
      </trkpt>
      <trkpt lat="44.32879" lon="3.00129">
        <ele>785</ele>
        <time>2020-02-14T10:34:58.000Z</time>
      </trkpt>
      <trkpt lat="44.32888" lon="3.00096">
        <ele>785</ele>
        <time>2020-02-14T10:35:16.000Z</time>
      </trkpt>
      <trkpt lat="44.32895" lon="3.00064">
        <ele>784</ele>
        <time>2020-02-14T10:35:26.000Z</time>
      </trkpt>
      <trkpt lat="44.32902" lon="3.00031">
        <ele>783</ele>
        <time>2020-02-14T10:35:50.000Z</time>
      </trkpt>
      <trkpt lat="44.32904" lon="3.00016">
        <ele>789.3</ele>
        <time>2020-02-14T10:36:00.000Z</time>
      </trkpt>
      <trkpt lat="44.32904" lon="3.00006">
        <ele>789.1</ele>
        <time>2020-02-14T10:36:10.000Z</time>
      </trkpt>
      <trkpt lat="44.32908" lon="2.99987">
        <ele>783</ele>
        <time>2020-02-14T10:36:52.000Z</time>
      </trkpt>
      <trkpt lat="44.32924" lon="2.99972">
        <ele>787.7</ele>
        <time>2020-02-14T10:37:02.000Z</time>
      </trkpt>
      <trkpt lat="44.32937" lon="2.99944">
        <ele>779</ele>
        <time>2020-02-14T10:38:55.000Z</time>
      </trkpt>
      <trkpt lat="44.32956" lon="2.9989">
        <ele>779</ele>
        <time>2020-02-14T10:39:25.000Z</time>
      </trkpt>
      <trkpt lat="44.32963" lon="2.99873">
        <ele>784.1</ele>
        <time>2020-02-14T10:39:35.000Z</time>
      </trkpt>
      <trkpt lat="44.32971" lon="2.99846">
        <ele>778</ele>
        <time>2020-02-14T10:39:49.000Z</time>
      </trkpt>
      <trkpt lat="44.32978" lon="2.99828">
        <ele>783.4</ele>
        <time>2020-02-14T10:39:59.000Z</time>
      </trkpt>
      <trkpt lat="44.32984" lon="2.9981">
        <ele>777</ele>
        <time>2020-02-14T10:40:09.000Z</time>
      </trkpt>
      <trkpt lat="44.33" lon="2.99776">
        <ele>775</ele>
        <time>2020-02-14T10:40:29.000Z</time>
      </trkpt>
      <trkpt lat="44.33029" lon="2.99729">
        <ele>775</ele>
        <time>2020-02-14T10:40:59.000Z</time>
      </trkpt>
      <trkpt lat="44.33048" lon="2.99702">
        <ele>776</ele>
        <time>2020-02-14T10:41:23.000Z</time>
      </trkpt>
      <trkpt lat="44.33044" lon="2.99695">
        <ele>783</ele>
        <time>2020-02-14T10:41:33.000Z</time>
      </trkpt>
      <trkpt lat="44.3303" lon="2.9965">
        <ele>777</ele>
        <time>2020-02-14T10:45:00.000Z</time>
      </trkpt>
      <trkpt lat="44.33035" lon="2.99628">
        <ele>782</ele>
        <time>2020-02-14T10:45:10.000Z</time>
      </trkpt>
      <trkpt lat="44.33038" lon="2.99611">
        <ele>777</ele>
        <time>2020-02-14T10:46:39.000Z</time>
      </trkpt>
      <trkpt lat="44.33044" lon="2.99592">
        <ele>782.9</ele>
        <time>2020-02-14T10:46:49.000Z</time>
      </trkpt>
      <trkpt lat="44.33049" lon="2.99581">
        <ele>780</ele>
        <time>2020-02-14T10:48:52.000Z</time>
      </trkpt>
      <trkpt lat="44.33053" lon="2.99569">
        <ele>784.3</ele>
        <time>2020-02-14T10:49:02.000Z</time>
      </trkpt>
      <trkpt lat="44.33058" lon="2.99558">
        <ele>784.8</ele>
        <time>2020-02-14T10:49:12.000Z</time>
      </trkpt>
      <trkpt lat="44.33087" lon="2.99524">
        <ele>786</ele>
        <time>2020-02-14T10:49:28.000Z</time>
      </trkpt>
      <trkpt lat="44.33101" lon="2.99501">
        <ele>786</ele>
        <time>2020-02-14T10:49:44.000Z</time>
      </trkpt>
      <trkpt lat="44.33126" lon="2.99465">
        <ele>787</ele>
        <time>2020-02-14T10:50:10.000Z</time>
      </trkpt>
      <trkpt lat="44.33136" lon="2.99446">
        <ele>789.9</ele>
        <time>2020-02-14T10:50:20.000Z</time>
      </trkpt>
      <trkpt lat="44.33148" lon="2.99418">
        <ele>787</ele>
        <time>2020-02-14T10:50:38.000Z</time>
      </trkpt>
      <trkpt lat="44.33159" lon="2.99387">
        <ele>788</ele>
        <time>2020-02-14T10:50:56.000Z</time>
      </trkpt>
      <trkpt lat="44.33165" lon="2.9936">
        <ele>788</ele>
        <time>2020-02-14T10:51:10.000Z</time>
      </trkpt>
      <trkpt lat="44.33172" lon="2.99338">
        <ele>791.5</ele>
        <time>2020-02-14T10:51:20.000Z</time>
      </trkpt>
      <trkpt lat="44.33185" lon="2.99302">
        <ele>787</ele>
        <time>2020-02-14T10:51:42.000Z</time>
      </trkpt>
      <trkpt lat="44.33201" lon="2.99243">
        <ele>787</ele>
        <time>2020-02-14T10:52:14.000Z</time>
      </trkpt>
      <trkpt lat="44.3321" lon="2.99215">
        <ele>786</ele>
        <time>2020-02-14T10:52:30.000Z</time>
      </trkpt>
      <trkpt lat="44.33215" lon="2.99197">
        <ele>792.5</ele>
        <time>2020-02-14T10:52:40.000Z</time>
      </trkpt>
      <trkpt lat="44.33225" lon="2.99169">
        <ele>786</ele>
        <time>2020-02-14T10:52:58.000Z</time>
      </trkpt>
      <trkpt lat="44.33234" lon="2.99153">
        <ele>792.4</ele>
        <time>2020-02-14T10:53:08.000Z</time>
      </trkpt>
      <trkpt lat="44.33237" lon="2.99134">
        <ele>786</ele>
        <time>2020-02-14T10:56:54.000Z</time>
      </trkpt>
      <trkpt lat="44.33244" lon="2.99126">
        <ele>791.9</ele>
        <time>2020-02-14T10:57:04.000Z</time>
      </trkpt>
      <trkpt lat="44.33252" lon="2.99115">
        <ele>782</ele>
        <time>2020-02-14T10:59:40.000Z</time>
      </trkpt>
      <trkpt lat="44.33264" lon="2.99094">
        <ele>791</ele>
        <time>2020-02-14T10:59:50.000Z</time>
      </trkpt>
      <trkpt lat="44.33294" lon="2.99052">
        <ele>778</ele>
        <time>2020-02-14T11:00:38.000Z</time>
      </trkpt>
      <trkpt lat="44.33304" lon="2.99037">
        <ele>787.1</ele>
        <time>2020-02-14T11:00:48.000Z</time>
      </trkpt>
      <trkpt lat="44.3331" lon="2.99025">
        <ele>771</ele>
        <time>2020-02-14T11:00:50.000Z</time>
      </trkpt>
      <trkpt lat="44.33331" lon="2.98987">
        <ele>771</ele>
        <time>2020-02-14T11:01:16.000Z</time>
      </trkpt>
      <trkpt lat="44.33336" lon="2.98974">
        <ele>782.5</ele>
        <time>2020-02-14T11:01:26.000Z</time>
      </trkpt>
      <trkpt lat="44.33351" lon="2.98941">
        <ele>768</ele>
        <time>2020-02-14T11:01:48.000Z</time>
      </trkpt>
      <trkpt lat="44.33356" lon="2.98924">
        <ele>775.8</ele>
        <time>2020-02-14T11:01:58.000Z</time>
      </trkpt>
      <trkpt lat="44.33356" lon="2.98903">
        <ele>768</ele>
        <time>2020-02-14T11:05:28.000Z</time>
      </trkpt>
      <trkpt lat="44.33358" lon="2.98888">
        <ele>772.9</ele>
        <time>2020-02-14T11:05:38.000Z</time>
      </trkpt>
      <trkpt lat="44.33363" lon="2.98866">
        <ele>769</ele>
        <time>2020-02-14T11:06:00.000Z</time>
      </trkpt>
      <trkpt lat="44.33368" lon="2.98854">
        <ele>769.5</ele>
        <time>2020-02-14T11:06:10.000Z</time>
      </trkpt>
      <trkpt lat="44.33379" lon="2.9884">
        <ele>769</ele>
        <time>2020-02-14T11:06:00.000Z</time>
      </trkpt>
      <trkpt lat="44.33391" lon="2.98807">
        <ele>769</ele>
        <time>2020-02-14T11:06:51.000Z</time>
      </trkpt>
      <trkpt lat="44.33397" lon="2.98782">
        <ele>762.9</ele>
        <time>2020-02-14T11:07:01.000Z</time>
      </trkpt>
      <trkpt lat="44.33407" lon="2.98758">
        <ele>770</ele>
        <time>2020-02-14T11:07:15.000Z</time>
      </trkpt>
      <trkpt lat="44.33409" lon="2.98741">
        <ele>759.9</ele>
        <time>2020-02-14T11:07:25.000Z</time>
      </trkpt>
      <trkpt lat="44.33412" lon="2.98729">
        <ele>771</ele>
        <time>2020-02-14T11:07:43.000Z</time>
      </trkpt>
      <trkpt lat="44.33422" lon="2.98708">
        <ele>758.3</ele>
        <time>2020-02-14T11:07:53.000Z</time>
      </trkpt>
      <trkpt lat="44.33434" lon="2.9868">
        <ele>755</ele>
        <time>2020-02-14T11:07:57.000Z</time>
      </trkpt>
      <trkpt lat="44.33447" lon="2.98664">
        <ele>753.5</ele>
        <time>2020-02-14T11:08:07.000Z</time>
      </trkpt>
      <trkpt lat="44.3346" lon="2.98652">
        <ele>740</ele>
        <time>2020-02-14T11:08:21.000Z</time>
      </trkpt>
      <trkpt lat="44.33471" lon="2.9864">
        <ele>747.4</ele>
        <time>2020-02-14T11:08:31.000Z</time>
      </trkpt>
      <trkpt lat="44.33481" lon="2.98633">
        <ele>740</ele>
        <time>2020-02-14T11:08:39.000Z</time>
      </trkpt>
      <trkpt lat="44.33502" lon="2.98605">
        <ele>736</ele>
        <time>2020-02-14T11:10:09.000Z</time>
      </trkpt>
      <trkpt lat="44.33516" lon="2.98592">
        <ele>735.8</ele>
        <time>2020-02-14T11:10:19.000Z</time>
      </trkpt>
      <trkpt lat="44.33523" lon="2.98582">
        <ele>735</ele>
        <time>2020-02-14T11:10:29.000Z</time>
      </trkpt>
      <trkpt lat="44.33543" lon="2.98562">
        <ele>734</ele>
        <time>2020-02-14T11:10:49.000Z</time>
      </trkpt>
      <trkpt lat="44.33571" lon="2.98541">
        <ele>719</ele>
        <time>2020-02-14T11:11:27.000Z</time>
      </trkpt>
      <trkpt lat="44.3359" lon="2.98533">
        <ele>719</ele>
        <time>2020-02-14T11:34:21.000Z</time>
      </trkpt>
      <trkpt lat="44.33604" lon="2.98528">
        <ele>717.8</ele>
        <time>2020-02-14T11:34:31.000Z</time>
      </trkpt>
      <trkpt lat="44.33622" lon="2.98519">
        <ele>712</ele>
        <time>2020-02-14T11:34:46.000Z</time>
      </trkpt>
      <trkpt lat="44.33629" lon="2.98514">
        <ele>715.2</ele>
        <time>2020-02-14T11:34:56.000Z</time>
      </trkpt>
      <trkpt lat="44.33641" lon="2.98507">
        <ele>709</ele>
        <time>2020-02-14T11:35:40.000Z</time>
      </trkpt>
      <trkpt lat="44.3365" lon="2.98499">
        <ele>714.5</ele>
        <time>2020-02-14T11:35:50.000Z</time>
      </trkpt>
      <trkpt lat="44.33674" lon="2.9848">
        <ele>706</ele>
        <time>2020-02-14T11:37:58.000Z</time>
      </trkpt>
      <trkpt lat="44.33692" lon="2.98472">
        <ele>713.1</ele>
        <time>2020-02-14T11:38:08.000Z</time>
      </trkpt>
      <trkpt lat="44.33701" lon="2.98465">
        <ele>703</ele>
        <time>2020-02-14T11:38:20.000Z</time>
      </trkpt>
      <trkpt lat="44.3371" lon="2.98453">
        <ele>710.9</ele>
        <time>2020-02-14T11:38:30.000Z</time>
      </trkpt>
      <trkpt lat="44.33723" lon="2.98428">
        <ele>693</ele>
        <time>2020-02-14T11:38:46.000Z</time>
      </trkpt>
      <trkpt lat="44.33734" lon="2.98412">
        <ele>706.9</ele>
        <time>2020-02-14T11:38:56.000Z</time>
      </trkpt>
      <trkpt lat="44.33754" lon="2.98376">
        <ele>693</ele>
        <time>2020-02-14T11:39:22.000Z</time>
      </trkpt>
      <trkpt lat="44.33767" lon="2.9836">
        <ele>702.7</ele>
        <time>2020-02-14T11:39:32.000Z</time>
      </trkpt>
      <trkpt lat="44.33796" lon="2.98327">
        <ele>690</ele>
        <time>2020-02-14T11:40:02.000Z</time>
      </trkpt>
      <trkpt lat="44.3382" lon="2.98297">
        <ele>687</ele>
        <time>2020-02-14T11:40:28.000Z</time>
      </trkpt>
      <trkpt lat="44.33849" lon="2.98255">
        <ele>685</ele>
        <time>2020-02-14T11:41:01.000Z</time>
      </trkpt>
      <trkpt lat="44.33857" lon="2.98245">
        <ele>691.4</ele>
        <time>2020-02-14T11:41:11.000Z</time>
      </trkpt>
      <trkpt lat="44.33867" lon="2.98236">
        <ele>684</ele>
        <time>2020-02-14T11:41:17.000Z</time>
      </trkpt>
      <trkpt lat="44.33876" lon="2.98222">
        <ele>688.9</ele>
        <time>2020-02-14T11:41:27.000Z</time>
      </trkpt>
      <trkpt lat="44.33892" lon="2.98193">
        <ele>680</ele>
        <time>2020-02-14T11:41:45.000Z</time>
      </trkpt>
      <trkpt lat="44.33898" lon="2.98178">
        <ele>685.7</ele>
        <time>2020-02-14T11:41:55.000Z</time>
      </trkpt>
      <trkpt lat="44.33908" lon="2.98164">
        <ele>678</ele>
        <time>2020-02-14T11:42:15.000Z</time>
      </trkpt>
      <trkpt lat="44.3392" lon="2.98149">
        <ele>683</ele>
        <time>2020-02-14T11:42:25.000Z</time>
      </trkpt>
      <trkpt lat="44.33934" lon="2.9813">
        <ele>676</ele>
        <time>2020-02-14T11:42:39.000Z</time>
      </trkpt>
      <trkpt lat="44.33942" lon="2.98117">
        <ele>679.2</ele>
        <time>2020-02-14T11:42:49.000Z</time>
      </trkpt>
      <trkpt lat="44.33964" lon="2.9809">
        <ele>673</ele>
        <time>2020-02-14T11:43:07.000Z</time>
      </trkpt>
      <trkpt lat="44.33975" lon="2.98075">
        <ele>678.1</ele>
        <time>2020-02-14T11:43:17.000Z</time>
      </trkpt>
      <trkpt lat="44.33995" lon="2.9806">
        <ele>671</ele>
        <time>2020-02-14T11:47:36.000Z</time>
      </trkpt>
      <trkpt lat="44.34005" lon="2.9805">
        <ele>678</ele>
        <time>2020-02-14T11:47:46.000Z</time>
      </trkpt>
      <trkpt lat="44.34057" lon="2.9801">
        <ele>669</ele>
        <time>2020-02-14T11:49:05.000Z</time>
      </trkpt>
      <trkpt lat="44.34079" lon="2.97992">
        <ele>667</ele>
        <time>2020-02-14T11:49:15.000Z</time>
      </trkpt>
      <trkpt lat="44.34104" lon="2.97972">
        <ele>662</ele>
        <time>2020-02-14T11:49:57.000Z</time>
      </trkpt>
      <trkpt lat="44.34119" lon="2.97962">
        <ele>669.1</ele>
        <time>2020-02-14T11:50:07.000Z</time>
      </trkpt>
      <trkpt lat="44.34128" lon="2.97958">
        <ele>659</ele>
        <time>2020-02-14T11:50:15.000Z</time>
      </trkpt>
      <trkpt lat="44.34144" lon="2.97949">
        <ele>666.6</ele>
        <time>2020-02-14T11:50:25.000Z</time>
      </trkpt>
      <trkpt lat="44.34181" lon="2.97937">
        <ele>653</ele>
        <time>2020-02-14T11:50:59.000Z</time>
      </trkpt>
      <trkpt lat="44.34199" lon="2.97923">
        <ele>650</ele>
        <time>2020-02-14T11:51:13.000Z</time>
      </trkpt>
      <trkpt lat="44.3422" lon="2.979">
        <ele>649</ele>
        <time>2020-02-14T11:51:32.000Z</time>
      </trkpt>
      <trkpt lat="44.34251" lon="2.9787">
        <ele>649</ele>
        <time>2020-02-14T11:51:58.000Z</time>
      </trkpt>
      <trkpt lat="44.34271" lon="2.97841">
        <ele>649</ele>
        <time>2020-02-14T11:52:18.000Z</time>
      </trkpt>
      <trkpt lat="44.34286" lon="2.97835">
        <ele>651.8</ele>
        <time>2020-02-14T11:52:28.000Z</time>
      </trkpt>
      <trkpt lat="44.34301" lon="2.97822">
        <ele>647</ele>
        <time>2020-02-14T11:55:40.000Z</time>
      </trkpt>
      <trkpt lat="44.34312" lon="2.97815">
        <ele>649.4</ele>
        <time>2020-02-14T11:55:50.000Z</time>
      </trkpt>
      <trkpt lat="44.34322" lon="2.97821">
        <ele>646</ele>
        <time>2020-02-14T12:00:15.000Z</time>
      </trkpt>
      <trkpt lat="44.34326" lon="2.97836">
        <ele>649.6</ele>
        <time>2020-02-14T12:00:25.000Z</time>
      </trkpt>
      <trkpt lat="44.34329" lon="2.9785">
        <ele>646</ele>
        <time>2020-02-14T12:00:48.000Z</time>
      </trkpt>
      <trkpt lat="44.34335" lon="2.97865">
        <ele>649.1</ele>
        <time>2020-02-14T12:00:58.000Z</time>
      </trkpt>
      <trkpt lat="44.34342" lon="2.97873">
        <ele>646</ele>
        <time>2020-02-14T12:02:07.000Z</time>
      </trkpt>
      <trkpt lat="44.34365" lon="2.97926">
        <ele>645</ele>
        <time>2020-02-14T12:02:39.000Z</time>
      </trkpt>
      <trkpt lat="44.34388" lon="2.9797">
        <ele>645</ele>
        <time>2020-02-14T12:03:07.000Z</time>
      </trkpt>
      <trkpt lat="44.34409" lon="2.98017">
        <ele>644</ele>
        <time>2020-02-14T12:03:37.000Z</time>
      </trkpt>
      <trkpt lat="44.34419" lon="2.98044">
        <ele>644</ele>
        <time>2020-02-14T12:03:53.000Z</time>
      </trkpt>
      <trkpt lat="44.34438" lon="2.98075">
        <ele>642</ele>
        <time>2020-02-14T12:04:20.000Z</time>
      </trkpt>
      <trkpt lat="44.34448" lon="2.98122">
        <ele>644</ele>
        <time>2020-02-14T12:11:11.000Z</time>
      </trkpt>
      <trkpt lat="44.34459" lon="2.98138">
        <ele>645.5</ele>
        <time>2020-02-14T12:11:21.000Z</time>
      </trkpt>
      <trkpt lat="44.34472" lon="2.98161">
        <ele>646</ele>
        <time>2020-02-14T12:12:54.000Z</time>
      </trkpt>
      <trkpt lat="44.34488" lon="2.98187">
        <ele>646</ele>
        <time>2020-02-14T12:13:12.000Z</time>
      </trkpt>
      <trkpt lat="44.34503" lon="2.98215">
        <ele>641</ele>
        <time>2020-02-14T12:13:22.000Z</time>
      </trkpt>
      <trkpt lat="44.34519" lon="2.98246">
        <ele>639</ele>
        <time>2020-02-14T12:13:50.000Z</time>
      </trkpt>
      <trkpt lat="44.34525" lon="2.9826">
        <ele>643</ele>
        <time>2020-02-14T12:14:00.000Z</time>
      </trkpt>
      <trkpt lat="44.34547" lon="2.98299">
        <ele>638</ele>
        <time>2020-02-14T12:14:22.000Z</time>
      </trkpt>
      <trkpt lat="44.34565" lon="2.98329">
        <ele>638</ele>
        <time>2020-02-14T12:14:42.000Z</time>
      </trkpt>
      <trkpt lat="44.34586" lon="2.98366">
        <ele>638</ele>
        <time>2020-02-14T12:15:06.000Z</time>
      </trkpt>
      <trkpt lat="44.34593" lon="2.98376">
        <ele>643.2</ele>
        <time>2020-02-14T12:15:16.000Z</time>
      </trkpt>
      <trkpt lat="44.34602" lon="2.98393">
        <ele>638</ele>
        <time>2020-02-14T12:16:59.000Z</time>
      </trkpt>
      <trkpt lat="44.34611" lon="2.98407">
        <ele>643.7</ele>
        <time>2020-02-14T12:17:09.000Z</time>
      </trkpt>
      <trkpt lat="44.3463" lon="2.9844">
        <ele>639</ele>
        <time>2020-02-14T12:17:32.000Z</time>
      </trkpt>
      <trkpt lat="44.34646" lon="2.98463">
        <ele>638</ele>
        <time>2020-02-14T12:17:48.000Z</time>
      </trkpt>
      <trkpt lat="44.34657" lon="2.98475">
        <ele>644.6</ele>
        <time>2020-02-14T12:17:58.000Z</time>
      </trkpt>
      <trkpt lat="44.34676" lon="2.9849">
        <ele>638</ele>
        <time>2020-02-14T12:18:14.000Z</time>
      </trkpt>
      <trkpt lat="44.34698" lon="2.98504">
        <ele>639</ele>
        <time>2020-02-14T12:18:32.000Z</time>
      </trkpt>
      <trkpt lat="44.34708" lon="2.98513">
        <ele>646.4</ele>
        <time>2020-02-14T12:18:42.000Z</time>
      </trkpt>
      <trkpt lat="44.34727" lon="2.98521">
        <ele>641</ele>
        <time>2020-02-14T12:19:01.000Z</time>
      </trkpt>
      <trkpt lat="44.34764" lon="2.98545">
        <ele>642</ele>
        <time>2020-02-14T12:19:24.000Z</time>
      </trkpt>
      <trkpt lat="44.34777" lon="2.9855">
        <ele>645</ele>
        <time>2020-02-14T12:19:34.000Z</time>
      </trkpt>
      <trkpt lat="44.34785" lon="2.9857">
        <ele>644</ele>
        <time>2020-02-14T12:19:54.000Z</time>
      </trkpt>
      <trkpt lat="44.34798" lon="2.98591">
        <ele>644</ele>
        <time>2020-02-14T12:21:21.000Z</time>
      </trkpt>
      <trkpt lat="44.34808" lon="2.98612">
        <ele>647.1</ele>
        <time>2020-02-14T12:21:31.000Z</time>
      </trkpt>
      <trkpt lat="44.34813" lon="2.98624">
        <ele>643</ele>
        <time>2020-02-14T12:24:07.000Z</time>
      </trkpt>
      <trkpt lat="44.34822" lon="2.98652">
        <ele>643</ele>
        <time>2020-02-14T12:24:29.000Z</time>
      </trkpt>
      <trkpt lat="44.34824" lon="2.98666">
        <ele>649.3</ele>
        <time>2020-02-14T12:24:39.000Z</time>
      </trkpt>
      <trkpt lat="44.34822" lon="2.98699">
        <ele>643</ele>
        <time>2020-02-14T12:25:28.000Z</time>
      </trkpt>
      <trkpt lat="44.34819" lon="2.98728">
        <ele>646</ele>
        <time>2020-02-14T12:25:44.000Z</time>
      </trkpt>
      <trkpt lat="44.34812" lon="2.98774">
        <ele>647</ele>
        <time>2020-02-14T12:26:08.000Z</time>
      </trkpt>
      <trkpt lat="44.34807" lon="2.98816">
        <ele>648</ele>
        <time>2020-02-14T12:26:18.000Z</time>
      </trkpt>
      <trkpt lat="44.34804" lon="2.9885">
        <ele>649</ele>
        <time>2020-02-14T12:26:28.000Z</time>
      </trkpt>
      <trkpt lat="44.348" lon="2.98885">
        <ele>653</ele>
        <time>2020-02-14T12:27:06.000Z</time>
      </trkpt>
      <trkpt lat="44.34799" lon="2.98907">
        <ele>659.6</ele>
        <time>2020-02-14T12:27:16.000Z</time>
      </trkpt>
      <trkpt lat="44.348" lon="2.98925">
        <ele>653</ele>
        <time>2020-02-14T12:27:28.000Z</time>
      </trkpt>
      <trkpt lat="44.34802" lon="2.98939">
        <ele>659.9</ele>
        <time>2020-02-14T12:27:38.000Z</time>
      </trkpt>
      <trkpt lat="44.34808" lon="2.98948">
        <ele>660.2</ele>
        <time>2020-02-14T12:27:48.000Z</time>
      </trkpt>
      <trkpt lat="44.34831" lon="2.98969">
        <ele>653</ele>
        <time>2020-02-14T12:29:16.000Z</time>
      </trkpt>
      <trkpt lat="44.34834" lon="2.98975">
        <ele>661.1</ele>
        <time>2020-02-14T12:29:26.000Z</time>
      </trkpt>
      <trkpt lat="44.34844" lon="2.98987">
        <ele>661.7</ele>
        <time>2020-02-14T12:29:36.000Z</time>
      </trkpt>
      <trkpt lat="44.34878" lon="2.99018">
        <ele>652</ele>
        <time>2020-02-14T12:31:41.000Z</time>
      </trkpt>
      <trkpt lat="44.3488" lon="2.99019">
        <ele>660.9</ele>
        <time>2020-02-14T12:31:51.000Z</time>
      </trkpt>
      <trkpt lat="44.34892" lon="2.99019">
        <ele>660.9</ele>
        <time>2020-02-14T12:32:01.000Z</time>
      </trkpt>
      <trkpt lat="44.34906" lon="2.99025">
        <ele>652</ele>
        <time>2020-02-14T12:34:11.000Z</time>
      </trkpt>
      <trkpt lat="44.34911" lon="2.99024">
        <ele>660.3</ele>
        <time>2020-02-14T12:34:21.000Z</time>
      </trkpt>
      <trkpt lat="44.34922" lon="2.99018">
        <ele>660</ele>
        <time>2020-02-14T12:34:31.000Z</time>
      </trkpt>
      <trkpt lat="44.34935" lon="2.99008">
        <ele>650</ele>
        <time>2020-02-14T12:36:22.000Z</time>
      </trkpt>
      <trkpt lat="44.34944" lon="2.98999">
        <ele>658</ele>
        <time>2020-02-14T12:36:32.000Z</time>
      </trkpt>
      <trkpt lat="44.34954" lon="2.98994">
        <ele>649</ele>
        <time>2020-02-14T12:36:38.000Z</time>
      </trkpt>
      <trkpt lat="44.34979" lon="2.98986">
        <ele>644</ele>
        <time>2020-02-14T12:36:48.000Z</time>
      </trkpt>
      <trkpt lat="44.35008" lon="2.98978">
        <ele>643</ele>
        <time>2020-02-14T12:38:13.000Z</time>
      </trkpt>
      <trkpt lat="44.35023" lon="2.99015">
        <ele>640</ele>
        <time>2020-02-14T12:41:57.000Z</time>
      </trkpt>
      <trkpt lat="44.35027" lon="2.99031">
        <ele>646</ele>
        <time>2020-02-14T12:42:07.000Z</time>
      </trkpt>
      <trkpt lat="44.3503" lon="2.99046">
        <ele>640</ele>
        <time>2020-02-14T12:42:17.000Z</time>
      </trkpt>
      <trkpt lat="44.35047" lon="2.99062">
        <ele>640</ele>
        <time>2020-02-14T12:42:34.000Z</time>
      </trkpt>
      <trkpt lat="44.35055" lon="2.99074">
        <ele>638.1</ele>
        <time>2020-02-14T12:42:44.000Z</time>
      </trkpt>
      <trkpt lat="44.35059" lon="2.99086">
        <ele>640</ele>
        <time>2020-02-14T12:43:34.000Z</time>
      </trkpt>
      <trkpt lat="44.35071" lon="2.99107">
        <ele>634</ele>
        <time>2020-02-14T12:43:44.000Z</time>
      </trkpt>
      <trkpt lat="44.35085" lon="2.99121">
        <ele>638</ele>
        <time>2020-02-14T12:47:33.000Z</time>
      </trkpt>
      <trkpt lat="44.35098" lon="2.99136">
        <ele>631.3</ele>
        <time>2020-02-14T12:47:43.000Z</time>
      </trkpt>
      <trkpt lat="44.35107" lon="2.99141">
        <ele>628</ele>
        <time>2020-02-14T12:48:01.000Z</time>
      </trkpt>
      <trkpt lat="44.35117" lon="2.9915">
        <ele>630</ele>
        <time>2020-02-14T12:48:11.000Z</time>
      </trkpt>
      <trkpt lat="44.35118" lon="2.99166">
        <ele>623</ele>
        <time>2020-02-14T12:48:49.000Z</time>
      </trkpt>
      <trkpt lat="44.35116" lon="2.99211">
        <ele>621</ele>
        <time>2020-02-14T12:51:31.000Z</time>
      </trkpt>
      <trkpt lat="44.35117" lon="2.99227">
        <ele>628.8</ele>
        <time>2020-02-14T12:51:41.000Z</time>
      </trkpt>
      <trkpt lat="44.35117" lon="2.99242">
        <ele>621</ele>
        <time>2020-02-14T12:52:00.000Z</time>
      </trkpt>
      <trkpt lat="44.35121" lon="2.99263">
        <ele>628.8</ele>
        <time>2020-02-14T12:52:10.000Z</time>
      </trkpt>
      <trkpt lat="44.35131" lon="2.99269">
        <ele>620</ele>
        <time>2020-02-14T12:52:35.000Z</time>
      </trkpt>
      <trkpt lat="44.3514" lon="2.99273">
        <ele>628.8</ele>
        <time>2020-02-14T12:52:45.000Z</time>
      </trkpt>
      <trkpt lat="44.35163" lon="2.99285">
        <ele>619</ele>
        <time>2020-02-14T12:53:09.000Z</time>
      </trkpt>
      <trkpt lat="44.3518" lon="2.99299">
        <ele>619</ele>
        <time>2020-02-14T12:53:28.000Z</time>
      </trkpt>
      <trkpt lat="44.3519" lon="2.99299">
        <ele>629</ele>
        <time>2020-02-14T12:53:38.000Z</time>
      </trkpt>
      <trkpt lat="44.35199" lon="2.99298">
        <ele>629</ele>
        <time>2020-02-14T12:53:48.000Z</time>
      </trkpt>
      <trkpt lat="44.35208" lon="2.99303">
        <ele>621</ele>
        <time>2020-02-14T12:54:23.000Z</time>
      </trkpt>
      <trkpt lat="44.35224" lon="2.99301">
        <ele>629</ele>
        <time>2020-02-14T12:54:33.000Z</time>
      </trkpt>
      <trkpt lat="44.35235" lon="2.99295">
        <ele>620</ele>
        <time>2020-02-14T12:55:47.000Z</time>
      </trkpt>
      <trkpt lat="44.35244" lon="2.99295">
        <ele>629</ele>
        <time>2020-02-14T12:55:57.000Z</time>
      </trkpt>
      <trkpt lat="44.35255" lon="2.99298">
        <ele>621</ele>
        <time>2020-02-14T12:56:48.000Z</time>
      </trkpt>
      <trkpt lat="44.35277" lon="2.99313">
        <ele>622</ele>
        <time>2020-02-14T12:56:56.000Z</time>
      </trkpt>
      <trkpt lat="44.35301" lon="2.99311">
        <ele>624</ele>
        <time>2020-02-14T12:57:14.000Z</time>
      </trkpt>
      <trkpt lat="44.35315" lon="2.99314">
        <ele>631.5</ele>
        <time>2020-02-14T12:57:24.000Z</time>
      </trkpt>
      <trkpt lat="44.35322" lon="2.99322">
        <ele>626</ele>
        <time>2020-02-14T12:57:32.000Z</time>
      </trkpt>
      <trkpt lat="44.35337" lon="2.99343">
        <ele>626</ele>
        <time>2020-02-14T12:57:50.000Z</time>
      </trkpt>
      <trkpt lat="44.35366" lon="2.99363">
        <ele>626</ele>
        <time>2020-02-14T12:58:28.000Z</time>
      </trkpt>
      <trkpt lat="44.35386" lon="2.99371">
        <ele>628</ele>
        <time>2020-02-14T12:59:34.000Z</time>
      </trkpt>
      <trkpt lat="44.35398" lon="2.99373">
        <ele>639.2</ele>
        <time>2020-02-14T12:59:44.000Z</time>
      </trkpt>
      <trkpt lat="44.35418" lon="2.99384">
        <ele>630</ele>
        <time>2020-02-14T13:01:33.000Z</time>
      </trkpt>
      <trkpt lat="44.35426" lon="2.99382">
        <ele>644.3</ele>
        <time>2020-02-14T13:01:43.000Z</time>
      </trkpt>
      <trkpt lat="44.35438" lon="2.99376">
        <ele>632</ele>
        <time>2020-02-14T13:04:24.000Z</time>
      </trkpt>
      <trkpt lat="44.35449" lon="2.99372">
        <ele>647.7</ele>
        <time>2020-02-14T13:04:34.000Z</time>
      </trkpt>
      <trkpt lat="44.35459" lon="2.99379">
        <ele>633</ele>
        <time>2020-02-14T13:04:47.000Z</time>
      </trkpt>
      <trkpt lat="44.35464" lon="2.99388">
        <ele>649.4</ele>
        <time>2020-02-14T13:04:57.000Z</time>
      </trkpt>
      <trkpt lat="44.35472" lon="2.99396">
        <ele>649.7</ele>
        <time>2020-02-14T13:05:07.000Z</time>
      </trkpt>
      <trkpt lat="44.35485" lon="2.99403">
        <ele>642</ele>
        <time>2020-02-14T08:49:29.000Z</time>
      </trkpt>
      <trkpt lat="44.35509" lon="2.99405">
        <ele>651</ele>
        <time>2020-02-14T08:49:46.000Z</time>
      </trkpt>
      <trkpt lat="44.35517" lon="2.994">
        <ele>653.6</ele>
        <time>2020-02-14T08:49:56.000Z</time>
      </trkpt>
      <trkpt lat="44.35531" lon="2.99381">
        <ele>652</ele>
        <time>2020-02-14T08:50:11.000Z</time>
      </trkpt>
      <trkpt lat="44.35537" lon="2.99381">
        <ele>655.1</ele>
        <time>2020-02-14T08:50:21.000Z</time>
      </trkpt>
      <trkpt lat="44.35546" lon="2.99386">
        <ele>655.6</ele>
        <time>2020-02-14T08:50:31.000Z</time>
      </trkpt>
      <trkpt lat="44.3555" lon="2.99394">
        <ele>651</ele>
        <time>2020-02-14T08:51:51.000Z</time>
      </trkpt>
      <trkpt lat="44.35571" lon="2.99416">
        <ele>651</ele>
        <time>2020-02-14T08:52:20.000Z</time>
      </trkpt>
      <trkpt lat="44.3558" lon="2.9942">
        <ele>657.7</ele>
        <time>2020-02-14T08:52:30.000Z</time>
      </trkpt>
      <trkpt lat="44.35592" lon="2.99421">
        <ele>651</ele>
        <time>2020-02-14T08:52:35.000Z</time>
      </trkpt>
      <trkpt lat="44.35612" lon="2.9942">
        <ele>652</ele>
        <time>2020-02-14T08:52:47.000Z</time>
      </trkpt>
      <trkpt lat="44.35621" lon="2.99423">
        <ele>660.8</ele>
        <time>2020-02-14T08:52:57.000Z</time>
      </trkpt>
      <trkpt lat="44.3563" lon="2.99428">
        <ele>661.6</ele>
        <time>2020-02-14T08:53:07.000Z</time>
      </trkpt>
      <trkpt lat="44.35637" lon="2.9943">
        <ele>652</ele>
        <time>2020-02-14T08:58:34.000Z</time>
      </trkpt>
      <trkpt lat="44.35644" lon="2.9944">
        <ele>662.7</ele>
        <time>2020-02-14T08:58:44.000Z</time>
      </trkpt>
      <trkpt lat="44.35653" lon="2.99466">
        <ele>653</ele>
        <time>2020-02-14T08:59:56.000Z</time>
      </trkpt>
      <trkpt lat="44.3566" lon="2.99474">
        <ele>662.1</ele>
        <time>2020-02-14T09:00:06.000Z</time>
      </trkpt>
      <trkpt lat="44.35668" lon="2.99479">
        <ele>662.4</ele>
        <time>2020-02-14T09:00:16.000Z</time>
      </trkpt>
      <trkpt lat="44.35687" lon="2.9948">
        <ele>656</ele>
        <time>2020-02-14T09:00:21.000Z</time>
      </trkpt>
      <trkpt lat="44.35697" lon="2.99485">
        <ele>663.3</ele>
        <time>2020-02-14T09:00:31.000Z</time>
      </trkpt>
      <trkpt lat="44.35702" lon="2.99497">
        <ele>656</ele>
        <time>2020-02-14T09:00:33.000Z</time>
      </trkpt>
      <trkpt lat="44.35706" lon="2.99511">
        <ele>662.5</ele>
        <time>2020-02-14T09:00:43.000Z</time>
      </trkpt>
      <trkpt lat="44.35705" lon="2.99525">
        <ele>656</ele>
        <time>2020-02-14T09:00:45.000Z</time>
      </trkpt>
      <trkpt lat="44.35702" lon="2.99536">
        <ele>662.9</ele>
        <time>2020-02-14T09:00:55.000Z</time>
      </trkpt>
      <trkpt lat="44.35691" lon="2.99558">
        <ele>655</ele>
        <time>2020-02-14T09:01:00.000Z</time>
      </trkpt>
      <trkpt lat="44.35687" lon="2.99579">
        <ele>663.4</ele>
        <time>2020-02-14T09:01:10.000Z</time>
      </trkpt>
      <trkpt lat="44.35687" lon="2.99628">
        <ele>657</ele>
        <time>2020-02-14T09:01:31.000Z</time>
      </trkpt>
      <trkpt lat="44.357" lon="2.99665">
        <ele>659</ele>
        <time>2020-02-14T09:01:48.000Z</time>
      </trkpt>
      <trkpt lat="44.35707" lon="2.99678">
        <ele>666.8</ele>
        <time>2020-02-14T09:01:58.000Z</time>
      </trkpt>
      <trkpt lat="44.35733" lon="2.9972">
        <ele>659</ele>
        <time>2020-02-14T09:02:20.000Z</time>
      </trkpt>
      <trkpt lat="44.35738" lon="2.99732">
        <ele>670.7</ele>
        <time>2020-02-14T09:02:30.000Z</time>
      </trkpt>
      <trkpt lat="44.35738" lon="2.99754">
        <ele>661</ele>
        <time>2020-02-14T09:02:36.000Z</time>
      </trkpt>
      <trkpt lat="44.35741" lon="2.99767">
        <ele>670.9</ele>
        <time>2020-02-14T09:02:46.000Z</time>
      </trkpt>
      <trkpt lat="44.35745" lon="2.99779">
        <ele>670.5</ele>
        <time>2020-02-14T09:02:56.000Z</time>
      </trkpt>
      <trkpt lat="44.35747" lon="2.99795">
        <ele>664</ele>
        <time>2020-02-14T09:02:55.000Z</time>
      </trkpt>
      <trkpt lat="44.35755" lon="2.99809">
        <ele>665.9</ele>
        <time>2020-02-14T09:03:05.000Z</time>
      </trkpt>
      <trkpt lat="44.35764" lon="2.99811">
        <ele>665</ele>
        <time>2020-02-14T09:03:13.000Z</time>
      </trkpt>
      <trkpt lat="44.35775" lon="2.99809">
        <ele>664.2</ele>
        <time>2020-02-14T09:03:23.000Z</time>
      </trkpt>
      <trkpt lat="44.35785" lon="2.99811">
        <ele>665</ele>
        <time>2020-02-14T09:03:29.000Z</time>
      </trkpt>
      <trkpt lat="44.35794" lon="2.99818">
        <ele>662.3</ele>
        <time>2020-02-14T09:03:39.000Z</time>
      </trkpt>
      <trkpt lat="44.35804" lon="2.99824">
        <ele>665</ele>
        <time>2020-02-14T09:03:40.000Z</time>
      </trkpt>
      <trkpt lat="44.35821" lon="2.99842">
        <ele>661</ele>
        <time>2020-02-14T09:03:50.000Z</time>
      </trkpt>
      <trkpt lat="44.35824" lon="2.99853">
        <ele>658</ele>
        <time>2020-02-14T09:04:00.000Z</time>
      </trkpt>
      <trkpt lat="44.35831" lon="2.99863">
        <ele>657.5</ele>
        <time>2020-02-14T09:04:10.000Z</time>
      </trkpt>
      <trkpt lat="44.35837" lon="2.99874">
        <ele>659</ele>
        <time>2020-02-14T09:04:08.000Z</time>
      </trkpt>
      <trkpt lat="44.35835" lon="2.99901">
        <ele>656</ele>
        <time>2020-02-14T09:04:27.000Z</time>
      </trkpt>
      <trkpt lat="44.35835" lon="2.99913">
        <ele>653.5</ele>
        <time>2020-02-14T09:04:37.000Z</time>
      </trkpt>
      <trkpt lat="44.35837" lon="2.99927">
        <ele>653</ele>
        <time>2020-02-14T09:04:47.000Z</time>
      </trkpt>
      <trkpt lat="44.35833" lon="2.99948">
        <ele>650</ele>
        <time>2020-02-14T09:05:27.000Z</time>
      </trkpt>
      <trkpt lat="44.35827" lon="2.99959">
        <ele>649.8</ele>
        <time>2020-02-14T09:05:37.000Z</time>
      </trkpt>
      <trkpt lat="44.35818" lon="2.99971">
        <ele>645</ele>
        <time>2020-02-14T09:05:43.000Z</time>
      </trkpt>
      <trkpt lat="44.3581" lon="2.9998">
        <ele>646.9</ele>
        <time>2020-02-14T09:05:53.000Z</time>
      </trkpt>
      <trkpt lat="44.35805" lon="2.99991">
        <ele>645</ele>
        <time>2020-02-14T09:05:56.000Z</time>
      </trkpt>
      <trkpt lat="44.35796" lon="3.00023">
        <ele>640</ele>
        <time>2020-02-14T09:06:13.000Z</time>
      </trkpt>
      <trkpt lat="44.35791" lon="3.00034">
        <ele>641.8</ele>
        <time>2020-02-14T09:06:23.000Z</time>
      </trkpt>
      <trkpt lat="44.3579" lon="3.00047">
        <ele>641.6</ele>
        <time>2020-02-14T09:06:33.000Z</time>
      </trkpt>
      <trkpt lat="44.3579" lon="3.00062">
        <ele>639</ele>
        <time>2020-02-14T09:06:29.000Z</time>
      </trkpt>
      <trkpt lat="44.35788" lon="3.00077">
        <ele>641.9</ele>
        <time>2020-02-14T09:06:39.000Z</time>
      </trkpt>
      <trkpt lat="44.35789" lon="3.00091">
        <ele>639</ele>
        <time>2020-02-14T09:06:41.000Z</time>
      </trkpt>
      <trkpt lat="44.35792" lon="3.00104">
        <ele>644.2</ele>
        <time>2020-02-14T09:06:51.000Z</time>
      </trkpt>
      <trkpt lat="44.35799" lon="3.00114">
        <ele>639</ele>
        <time>2020-02-14T09:06:54.000Z</time>
      </trkpt>
      <trkpt lat="44.35805" lon="3.00127">
        <ele>645.4</ele>
        <time>2020-02-14T09:07:04.000Z</time>
      </trkpt>
      <trkpt lat="44.35807" lon="3.0014">
        <ele>639</ele>
        <time>2020-02-14T09:07:06.000Z</time>
      </trkpt>
      <trkpt lat="44.35807" lon="3.00154">
        <ele>648.5</ele>
        <time>2020-02-14T09:07:16.000Z</time>
      </trkpt>
      <trkpt lat="44.35817" lon="3.00191">
        <ele>641</ele>
        <time>2020-02-14T09:07:31.000Z</time>
      </trkpt>
      <trkpt lat="44.35826" lon="3.00214">
        <ele>651</ele>
        <time>2020-02-14T09:07:41.000Z</time>
      </trkpt>
      <trkpt lat="44.35827" lon="3.00228">
        <ele>643</ele>
        <time>2020-02-14T09:07:47.000Z</time>
      </trkpt>
      <trkpt lat="44.3583" lon="3.0024">
        <ele>652.3</ele>
        <time>2020-02-14T09:07:57.000Z</time>
      </trkpt>
      <trkpt lat="44.35835" lon="3.00268">
        <ele>644</ele>
        <time>2020-02-14T09:08:06.000Z</time>
      </trkpt>
      <trkpt lat="44.35839" lon="3.00281">
        <ele>654.6</ele>
        <time>2020-02-14T09:08:16.000Z</time>
      </trkpt>
      <trkpt lat="44.3584" lon="3.00295">
        <ele>646</ele>
        <time>2020-02-14T09:08:19.000Z</time>
      </trkpt>
      <trkpt lat="44.3584" lon="3.00308">
        <ele>657.1</ele>
        <time>2020-02-14T09:08:29.000Z</time>
      </trkpt>
      <trkpt lat="44.35838" lon="3.00322">
        <ele>645</ele>
        <time>2020-02-14T09:08:31.000Z</time>
      </trkpt>
      <trkpt lat="44.35825" lon="3.00374">
        <ele>645</ele>
        <time>2020-02-14T09:08:56.000Z</time>
      </trkpt>
      <trkpt lat="44.35823" lon="3.00387">
        <ele>661.2</ele>
        <time>2020-02-14T09:09:06.000Z</time>
      </trkpt>
      <trkpt lat="44.35819" lon="3.00401">
        <ele>653</ele>
        <time>2020-02-14T09:09:08.000Z</time>
      </trkpt>
      <trkpt lat="44.3581" lon="3.00425">
        <ele>655</ele>
        <time>2020-02-14T09:09:21.000Z</time>
      </trkpt>
      <trkpt lat="44.35809" lon="3.00439">
        <ele>664.4</ele>
        <time>2020-02-14T09:09:31.000Z</time>
      </trkpt>
      <trkpt lat="44.35805" lon="3.00451">
        <ele>655</ele>
        <time>2020-02-14T09:09:41.000Z</time>
      </trkpt>
      <trkpt lat="44.35799" lon="3.00478">
        <ele>663</ele>
        <time>2020-02-14T09:09:46.000Z</time>
      </trkpt>
      <trkpt lat="44.3579" lon="3.00508">
        <ele>662</ele>
        <time>2020-02-14T09:10:01.000Z</time>
      </trkpt>
      <trkpt lat="44.35791" lon="3.00521">
        <ele>668.4</ele>
        <time>2020-02-14T09:10:11.000Z</time>
      </trkpt>
      <trkpt lat="44.35799" lon="3.00531">
        <ele>662</ele>
        <time>2020-02-14T09:10:14.000Z</time>
      </trkpt>
      <trkpt lat="44.35817" lon="3.00544">
        <ele>662</ele>
        <time>2020-02-14T09:10:26.000Z</time>
      </trkpt>
      <trkpt lat="44.35841" lon="3.0057">
        <ele>665</ele>
        <time>2020-02-14T09:10:56.000Z</time>
      </trkpt>
      <trkpt lat="44.35861" lon="3.00587">
        <ele>665</ele>
        <time>2020-02-14T09:11:43.000Z</time>
      </trkpt>
      <trkpt lat="44.35876" lon="3.00605">
        <ele>666</ele>
        <time>2020-02-14T09:11:51.000Z</time>
      </trkpt>
      <trkpt lat="44.35882" lon="3.00616">
        <ele>671.6</ele>
        <time>2020-02-14T09:12:01.000Z</time>
      </trkpt>
      <trkpt lat="44.35887" lon="3.00628">
        <ele>667</ele>
        <time>2020-02-14T09:12:04.000Z</time>
      </trkpt>
      <trkpt lat="44.35891" lon="3.0067">
        <ele>668</ele>
        <time>2020-02-14T09:12:27.000Z</time>
      </trkpt>
      <trkpt lat="44.35894" lon="3.00682">
        <ele>674.9</ele>
        <time>2020-02-14T09:12:37.000Z</time>
      </trkpt>
      <trkpt lat="44.35896" lon="3.00698">
        <ele>668</ele>
        <time>2020-02-14T09:14:08.000Z</time>
      </trkpt>
      <trkpt lat="44.35897" lon="3.00743">
        <ele>669</ele>
        <time>2020-02-14T09:14:55.000Z</time>
      </trkpt>
      <trkpt lat="44.35895" lon="3.00758">
        <ele>682.6</ele>
        <time>2020-02-14T09:15:05.000Z</time>
      </trkpt>
      <trkpt lat="44.3589" lon="3.00769">
        <ele>669</ele>
        <time>2020-02-14T09:15:11.000Z</time>
      </trkpt>
      <trkpt lat="44.35871" lon="3.00794">
        <ele>670</ele>
        <time>2020-02-14T09:15:31.000Z</time>
      </trkpt>
      <trkpt lat="44.35861" lon="3.00803">
        <ele>686.2</ele>
        <time>2020-02-14T09:15:41.000Z</time>
      </trkpt>
      <trkpt lat="44.35846" lon="3.00822">
        <ele>679</ele>
        <time>2020-02-14T09:15:47.000Z</time>
      </trkpt>
      <trkpt lat="44.35822" lon="3.00846">
        <ele>679</ele>
        <time>2020-02-14T09:16:06.000Z</time>
      </trkpt>
      <trkpt lat="44.35812" lon="3.00854">
        <ele>691.9</ele>
        <time>2020-02-14T09:16:16.000Z</time>
      </trkpt>
      <trkpt lat="44.35805" lon="3.00871">
        <ele>682</ele>
        <time>2020-02-14T09:16:21.000Z</time>
      </trkpt>
      <trkpt lat="44.35799" lon="3.00881">
        <ele>692.7</ele>
        <time>2020-02-14T09:16:31.000Z</time>
      </trkpt>
      <trkpt lat="44.35787" lon="3.00929">
        <ele>687</ele>
        <time>2020-02-14T09:16:50.000Z</time>
      </trkpt>
      <trkpt lat="44.35782" lon="3.00942">
        <ele>696.9</ele>
        <time>2020-02-14T09:17:00.000Z</time>
      </trkpt>
      <trkpt lat="44.35773" lon="3.00977">
        <ele>692</ele>
        <time>2020-02-14T09:17:14.000Z</time>
      </trkpt>
      <trkpt lat="44.35772" lon="3.00992">
        <ele>700.3</ele>
        <time>2020-02-14T09:17:24.000Z</time>
      </trkpt>
      <trkpt lat="44.35763" lon="3.01015">
        <ele>693</ele>
        <time>2020-02-14T09:17:31.000Z</time>
      </trkpt>
      <trkpt lat="44.35755" lon="3.01056">
        <ele>698</ele>
        <time>2020-02-14T09:17:53.000Z</time>
      </trkpt>
      <trkpt lat="44.35755" lon="3.01084">
        <ele>703</ele>
        <time>2020-02-14T09:18:06.000Z</time>
      </trkpt>
      <trkpt lat="44.35756" lon="3.01098">
        <ele>709.2</ele>
        <time>2020-02-14T09:18:16.000Z</time>
      </trkpt>
      <trkpt lat="44.35754" lon="3.01126">
        <ele>703</ele>
        <time>2020-02-14T09:18:29.000Z</time>
      </trkpt>
      <trkpt lat="44.35751" lon="3.01137">
        <ele>711.9</ele>
        <time>2020-02-14T09:18:39.000Z</time>
      </trkpt>
      <trkpt lat="44.35748" lon="3.01158">
        <ele>705</ele>
        <time>2020-02-14T09:19:13.000Z</time>
      </trkpt>
      <trkpt lat="44.35745" lon="3.01196">
        <ele>707</ele>
        <time>2020-02-14T09:24:07.000Z</time>
      </trkpt>
      <trkpt lat="44.35748" lon="3.0121">
        <ele>716.6</ele>
        <time>2020-02-14T09:24:17.000Z</time>
      </trkpt>
      <trkpt lat="44.35753" lon="3.01224">
        <ele>712</ele>
        <time>2020-02-14T09:24:19.000Z</time>
      </trkpt>
      <trkpt lat="44.3576" lon="3.01234">
        <ele>717.8</ele>
        <time>2020-02-14T09:24:29.000Z</time>
      </trkpt>
      <trkpt lat="44.35765" lon="3.01247">
        <ele>713</ele>
        <time>2020-02-14T09:24:30.000Z</time>
      </trkpt>
      <trkpt lat="44.35772" lon="3.01257">
        <ele>719.2</ele>
        <time>2020-02-14T09:24:40.000Z</time>
      </trkpt>
      <trkpt lat="44.35778" lon="3.01269">
        <ele>713</ele>
        <time>2020-02-14T09:24:42.000Z</time>
      </trkpt>
      <trkpt lat="44.35781" lon="3.01282">
        <ele>719.8</ele>
        <time>2020-02-14T09:24:52.000Z</time>
      </trkpt>
      <trkpt lat="44.35785" lon="3.01294">
        <ele>719.2</ele>
        <time>2020-02-14T09:25:02.000Z</time>
      </trkpt>
      <trkpt lat="44.35792" lon="3.01304">
        <ele>714</ele>
        <time>2020-02-14T09:25:05.000Z</time>
      </trkpt>
      <trkpt lat="44.35796" lon="3.01316">
        <ele>718.7</ele>
        <time>2020-02-14T09:25:15.000Z</time>
      </trkpt>
      <trkpt lat="44.35809" lon="3.01337">
        <ele>713</ele>
        <time>2020-02-14T09:25:19.000Z</time>
      </trkpt>
      <trkpt lat="44.35814" lon="3.01349">
        <ele>717.3</ele>
        <time>2020-02-14T09:25:29.000Z</time>
      </trkpt>
      <trkpt lat="44.3582" lon="3.01361">
        <ele>712</ele>
        <time>2020-02-14T09:25:31.000Z</time>
      </trkpt>
      <trkpt lat="44.35827" lon="3.01371">
        <ele>715.4</ele>
        <time>2020-02-14T09:25:41.000Z</time>
      </trkpt>
      <trkpt lat="44.35834" lon="3.01378">
        <ele>714.6</ele>
        <time>2020-02-14T09:25:51.000Z</time>
      </trkpt>
      <trkpt lat="44.35841" lon="3.01389">
        <ele>709</ele>
        <time>2020-02-14T09:25:48.000Z</time>
      </trkpt>
      <trkpt lat="44.35844" lon="3.01401">
        <ele>711.9</ele>
        <time>2020-02-14T09:25:58.000Z</time>
      </trkpt>
      <trkpt lat="44.3584" lon="3.01413">
        <ele>709.8</ele>
        <time>2020-02-14T09:26:08.000Z</time>
      </trkpt>
      <trkpt lat="44.35814" lon="3.01438">
        <ele>708</ele>
        <time>2020-02-14T09:26:20.000Z</time>
      </trkpt>
      <trkpt lat="44.35791" lon="3.01467">
        <ele>709</ele>
        <time>2020-02-14T09:26:38.000Z</time>
      </trkpt>
      <trkpt lat="44.35766" lon="3.01489">
        <ele>705</ele>
        <time>2020-02-14T09:26:54.000Z</time>
      </trkpt>
      <trkpt lat="44.35756" lon="3.01493">
        <ele>694.7</ele>
        <time>2020-02-14T09:27:04.000Z</time>
      </trkpt>
      <trkpt lat="44.35747" lon="3.01499">
        <ele>706</ele>
        <time>2020-02-14T09:27:06.000Z</time>
      </trkpt>
      <trkpt lat="44.35737" lon="3.015">
        <ele>693.4</ele>
        <time>2020-02-14T09:27:16.000Z</time>
      </trkpt>
      <trkpt lat="44.35729" lon="3.01503">
        <ele>693.6</ele>
        <time>2020-02-14T09:27:26.000Z</time>
      </trkpt>
      <trkpt lat="44.35711" lon="3.01514">
        <ele>703</ele>
        <time>2020-02-14T09:27:30.000Z</time>
      </trkpt>
      <trkpt lat="44.35703" lon="3.01523">
        <ele>692.9</ele>
        <time>2020-02-14T09:27:40.000Z</time>
      </trkpt>
      <trkpt lat="44.35707" lon="3.01536">
        <ele>705</ele>
        <time>2020-02-14T09:28:26.000Z</time>
      </trkpt>
      <trkpt lat="44.35716" lon="3.01523">
        <ele>691</ele>
        <time>2020-02-14T09:28:36.000Z</time>
      </trkpt>
      <trkpt lat="44.35732" lon="3.0151">
        <ele>701</ele>
        <time>2020-02-14T09:30:20.000Z</time>
      </trkpt>
      <trkpt lat="44.35741" lon="3.01508">
        <ele>691.2</ele>
        <time>2020-02-14T09:30:30.000Z</time>
      </trkpt>
      <trkpt lat="44.3575" lon="3.0151">
        <ele>689.8</ele>
        <time>2020-02-14T09:30:40.000Z</time>
      </trkpt>
      <trkpt lat="44.35784" lon="3.01523">
        <ele>697</ele>
        <time>2020-02-14T09:30:44.000Z</time>
      </trkpt>
      <trkpt lat="44.35816" lon="3.01554">
        <ele>688</ele>
        <time>2020-02-14T09:31:04.000Z</time>
      </trkpt>
      <trkpt lat="44.3583" lon="3.01572">
        <ele>682.7</ele>
        <time>2020-02-14T09:31:14.000Z</time>
      </trkpt>
      <trkpt lat="44.35847" lon="3.01587">
        <ele>684</ele>
        <time>2020-02-14T09:31:26.000Z</time>
      </trkpt>
      <trkpt lat="44.35861" lon="3.01603">
        <ele>679.7</ele>
        <time>2020-02-14T09:31:36.000Z</time>
      </trkpt>
      <trkpt lat="44.35869" lon="3.0161">
        <ele>675</ele>
        <time>2020-02-14T09:31:41.000Z</time>
      </trkpt>
      <trkpt lat="44.3589" lon="3.0164">
        <ele>672</ele>
        <time>2020-02-14T09:31:59.000Z</time>
      </trkpt>
      <trkpt lat="44.35902" lon="3.01659">
        <ele>672.4</ele>
        <time>2020-02-14T09:32:09.000Z</time>
      </trkpt>
      <trkpt lat="44.35918" lon="3.01671">
        <ele>669</ele>
        <time>2020-02-14T09:32:26.000Z</time>
      </trkpt>
      <trkpt lat="44.35931" lon="3.01685">
        <ele>670.6</ele>
        <time>2020-02-14T09:32:36.000Z</time>
      </trkpt>
      <trkpt lat="44.35931" lon="3.01699">
        <ele>666</ele>
        <time>2020-02-14T09:32:49.000Z</time>
      </trkpt>
      <trkpt lat="44.35929" lon="3.01712">
        <ele>666.4</ele>
        <time>2020-02-14T09:32:59.000Z</time>
      </trkpt>
      <trkpt lat="44.35935" lon="3.01746">
        <ele>664</ele>
        <time>2020-02-14T09:33:30.000Z</time>
      </trkpt>
      <trkpt lat="44.35937" lon="3.0176">
        <ele>661.7</ele>
        <time>2020-02-14T09:33:40.000Z</time>
      </trkpt>
      <trkpt lat="44.35944" lon="3.01772">
        <ele>662</ele>
        <time>2020-02-14T09:35:03.000Z</time>
      </trkpt>
      <trkpt lat="44.35969" lon="3.01782">
        <ele>660</ele>
        <time>2020-02-14T09:35:17.000Z</time>
      </trkpt>
      <trkpt lat="44.3598" lon="3.01782">
        <ele>659.3</ele>
        <time>2020-02-14T09:35:27.000Z</time>
      </trkpt>
      <trkpt lat="44.35999" lon="3.01788">
        <ele>656</ele>
        <time>2020-02-14T09:35:39.000Z</time>
      </trkpt>
      <trkpt lat="44.36021" lon="3.01788">
        <ele>653</ele>
        <time>2020-02-14T09:36:10.000Z</time>
      </trkpt>
      <trkpt lat="44.3604" lon="3.01791">
        <ele>656.6</ele>
        <time>2020-02-14T09:36:20.000Z</time>
      </trkpt>
      <trkpt lat="44.36055" lon="3.01798">
        <ele>653</ele>
        <time>2020-02-14T09:36:30.000Z</time>
      </trkpt>
      <trkpt lat="44.36063" lon="3.01807">
        <ele>656</ele>
        <time>2020-02-14T09:36:40.000Z</time>
      </trkpt>
      <trkpt lat="44.3607" lon="3.01817">
        <ele>648</ele>
        <time>2020-02-14T09:36:40.000Z</time>
      </trkpt>
      <trkpt lat="44.36078" lon="3.01825">
        <ele>655.9</ele>
        <time>2020-02-14T09:36:50.000Z</time>
      </trkpt>
      <trkpt lat="44.36093" lon="3.01844">
        <ele>649</ele>
        <time>2020-02-14T09:36:58.000Z</time>
      </trkpt>
      <trkpt lat="44.36095" lon="3.01857">
        <ele>656.8</ele>
        <time>2020-02-14T09:37:08.000Z</time>
      </trkpt>
      <trkpt lat="44.36094" lon="3.01886">
        <ele>648</ele>
        <time>2020-02-14T09:39:26.000Z</time>
      </trkpt>
      <trkpt lat="44.36084" lon="3.01893">
        <ele>657.4</ele>
        <time>2020-02-14T09:39:36.000Z</time>
      </trkpt>
      <trkpt lat="44.36066" lon="3.01902">
        <ele>648</ele>
        <time>2020-02-14T09:40:15.000Z</time>
      </trkpt>
      <trkpt lat="44.36049" lon="3.01917">
        <ele>647</ele>
        <time>2020-02-14T09:42:26.000Z</time>
      </trkpt>
      <trkpt lat="44.36036" lon="3.01923">
        <ele>653.6</ele>
        <time>2020-02-14T09:42:36.000Z</time>
      </trkpt>
      <trkpt lat="44.36024" lon="3.01932">
        <ele>647</ele>
        <time>2020-02-14T09:42:47.000Z</time>
      </trkpt>
      <trkpt lat="44.36014" lon="3.01934">
        <ele>652.2</ele>
        <time>2020-02-14T09:42:57.000Z</time>
      </trkpt>
      <trkpt lat="44.35997" lon="3.01941">
        <ele>645</ele>
        <time>2020-02-14T09:44:37.000Z</time>
      </trkpt>
      <trkpt lat="44.3599" lon="3.01949">
        <ele>650.5</ele>
        <time>2020-02-14T09:44:47.000Z</time>
      </trkpt>
      <trkpt lat="44.3598" lon="3.01954">
        <ele>645</ele>
        <time>2020-02-14T09:44:49.000Z</time>
      </trkpt>
      <trkpt lat="44.35971" lon="3.01964">
        <ele>650</ele>
        <time>2020-02-14T09:44:59.000Z</time>
      </trkpt>
      <trkpt lat="44.35968" lon="3.01969">
        <ele>650</ele>
        <time>2020-02-14T09:45:09.000Z</time>
      </trkpt>
      <trkpt lat="44.35963" lon="3.01982">
        <ele>645</ele>
        <time>2020-02-14T09:46:08.000Z</time>
      </trkpt>
      <trkpt lat="44.35955" lon="3.01992">
        <ele>650</ele>
        <time>2020-02-14T09:46:18.000Z</time>
      </trkpt>
      <trkpt lat="44.35947" lon="3.01998">
        <ele>644</ele>
        <time>2020-02-14T09:46:24.000Z</time>
      </trkpt>
      <trkpt lat="44.35937" lon="3.02002">
        <ele>650</ele>
        <time>2020-02-14T09:46:34.000Z</time>
      </trkpt>
      <trkpt lat="44.35926" lon="3.02003">
        <ele>644</ele>
        <time>2020-02-14T09:46:34.000Z</time>
      </trkpt>
      <trkpt lat="44.35915" lon="3.02002">
        <ele>650.1</ele>
        <time>2020-02-14T09:46:44.000Z</time>
      </trkpt>
      <trkpt lat="44.359" lon="3.02005">
        <ele>643</ele>
        <time>2020-02-14T09:46:50.000Z</time>
      </trkpt>
      <trkpt lat="44.3589" lon="3.02005">
        <ele>651.1</ele>
        <time>2020-02-14T09:47:00.000Z</time>
      </trkpt>
      <trkpt lat="44.35878" lon="3.0203">
        <ele>643</ele>
        <time>2020-02-14T09:48:55.000Z</time>
      </trkpt>
      <trkpt lat="44.35863" lon="3.02087">
        <ele>648</ele>
        <time>2020-02-14T09:49:26.000Z</time>
      </trkpt>
      <trkpt lat="44.35851" lon="3.02123">
        <ele>649</ele>
        <time>2020-02-14T09:49:46.000Z</time>
      </trkpt>
      <trkpt lat="44.35839" lon="3.02146">
        <ele>650</ele>
        <time>2020-02-14T09:50:01.000Z</time>
      </trkpt>
      <trkpt lat="44.3583" lon="3.0216">
        <ele>667.2</ele>
        <time>2020-02-14T09:50:11.000Z</time>
      </trkpt>
      <trkpt lat="44.35812" lon="3.0217">
        <ele>655</ele>
        <time>2020-02-14T09:50:28.000Z</time>
      </trkpt>
      <trkpt lat="44.35802" lon="3.02171">
        <ele>669.8</ele>
        <time>2020-02-14T09:50:38.000Z</time>
      </trkpt>
      <trkpt lat="44.35778" lon="3.02191">
        <ele>662</ele>
        <time>2020-02-14T09:50:49.000Z</time>
      </trkpt>
      <trkpt lat="44.35763" lon="3.02208">
        <ele>667</ele>
        <time>2020-02-14T09:51:03.000Z</time>
      </trkpt>
      <trkpt lat="44.35755" lon="3.02216">
        <ele>676.3</ele>
        <time>2020-02-14T09:51:13.000Z</time>
      </trkpt>
      <trkpt lat="44.35746" lon="3.02223">
        <ele>667</ele>
        <time>2020-02-14T09:51:16.000Z</time>
      </trkpt>
      <trkpt lat="44.35728" lon="3.02231">
        <ele>676.9</ele>
        <time>2020-02-14T09:51:26.000Z</time>
      </trkpt>
      <trkpt lat="44.3572" lon="3.02238">
        <ele>670</ele>
        <time>2020-02-14T09:51:33.000Z</time>
      </trkpt>
      <trkpt lat="44.3571" lon="3.02243">
        <ele>677.6</ele>
        <time>2020-02-14T09:51:43.000Z</time>
      </trkpt>
      <trkpt lat="44.35703" lon="3.02252">
        <ele>673</ele>
        <time>2020-02-14T09:51:53.000Z</time>
      </trkpt>
      <trkpt lat="44.35685" lon="3.02283">
        <ele>677</ele>
        <time>2020-02-14T09:52:14.000Z</time>
      </trkpt>
      <trkpt lat="44.35682" lon="3.02296">
        <ele>683.4</ele>
        <time>2020-02-14T09:52:24.000Z</time>
      </trkpt>
      <trkpt lat="44.3567" lon="3.02317">
        <ele>678</ele>
        <time>2020-02-14T09:52:34.000Z</time>
      </trkpt>
      <trkpt lat="44.3565" lon="3.02377">
        <ele>678</ele>
        <time>2020-02-14T09:53:01.000Z</time>
      </trkpt>
      <trkpt lat="44.35648" lon="3.02391">
        <ele>688.2</ele>
        <time>2020-02-14T09:53:11.000Z</time>
      </trkpt>
      <trkpt lat="44.35634" lon="3.02412">
        <ele>684</ele>
        <time>2020-02-14T09:53:16.000Z</time>
      </trkpt>
      <trkpt lat="44.35629" lon="3.02423">
        <ele>687.2</ele>
        <time>2020-02-14T09:53:26.000Z</time>
      </trkpt>
      <trkpt lat="44.35608" lon="3.02451">
        <ele>685</ele>
        <time>2020-02-14T09:53:39.000Z</time>
      </trkpt>
      <trkpt lat="44.35602" lon="3.02463">
        <ele>689.1</ele>
        <time>2020-02-14T09:53:49.000Z</time>
      </trkpt>
      <trkpt lat="44.35595" lon="3.02473">
        <ele>685</ele>
        <time>2020-02-14T09:53:53.000Z</time>
      </trkpt>
      <trkpt lat="44.35587" lon="3.02481">
        <ele>693.2</ele>
        <time>2020-02-14T09:54:03.000Z</time>
      </trkpt>
      <trkpt lat="44.35579" lon="3.02487">
        <ele>695.2</ele>
        <time>2020-02-14T09:54:13.000Z</time>
      </trkpt>
      <trkpt lat="44.35569" lon="3.02489">
        <ele>685</ele>
        <time>2020-02-14T09:54:14.000Z</time>
      </trkpt>
      <trkpt lat="44.35565" lon="3.02488">
        <ele>695.2</ele>
        <time>2020-02-14T09:54:24.000Z</time>
      </trkpt>
      <trkpt lat="44.35541" lon="3.02478">
        <ele>688</ele>
        <time>2020-02-14T09:56:51.000Z</time>
      </trkpt>
      <trkpt lat="44.35532" lon="3.02471">
        <ele>696.6</ele>
        <time>2020-02-14T09:57:01.000Z</time>
      </trkpt>
      <trkpt lat="44.35523" lon="3.02467">
        <ele>688</ele>
        <time>2020-02-14T09:57:03.000Z</time>
      </trkpt>
      <trkpt lat="44.35496" lon="3.02439">
        <ele>687</ele>
        <time>2020-02-14T09:57:23.000Z</time>
      </trkpt>
      <trkpt lat="44.35482" lon="3.02427">
        <ele>700.5</ele>
        <time>2020-02-14T09:57:33.000Z</time>
      </trkpt>
      <trkpt lat="44.35472" lon="3.02416">
        <ele>686</ele>
        <time>2020-02-14T09:57:42.000Z</time>
      </trkpt>
      <trkpt lat="44.35464" lon="3.0241">
        <ele>700.2</ele>
        <time>2020-02-14T09:57:52.000Z</time>
      </trkpt>
      <trkpt lat="44.35455" lon="3.02406">
        <ele>700.5</ele>
        <time>2020-02-14T09:58:02.000Z</time>
      </trkpt>
      <trkpt lat="44.35445" lon="3.02404">
        <ele>686</ele>
        <time>2020-02-14T09:58:01.000Z</time>
      </trkpt>
      <trkpt lat="44.35434" lon="3.02407">
        <ele>704.4</ele>
        <time>2020-02-14T09:58:11.000Z</time>
      </trkpt>
      <trkpt lat="44.35425" lon="3.02403">
        <ele>695</ele>
        <time>2020-02-14T09:58:14.000Z</time>
      </trkpt>
      <trkpt lat="44.35418" lon="3.02394">
        <ele>705.2</ele>
        <time>2020-02-14T09:58:24.000Z</time>
      </trkpt>
      <trkpt lat="44.35412" lon="3.02382">
        <ele>695</ele>
        <time>2020-02-14T09:58:26.000Z</time>
      </trkpt>
      <trkpt lat="44.35406" lon="3.02357">
        <ele>707.3</ele>
        <time>2020-02-14T09:58:36.000Z</time>
      </trkpt>
      <trkpt lat="44.35402" lon="3.02345">
        <ele>697</ele>
        <time>2020-02-14T09:58:44.000Z</time>
      </trkpt>
      <trkpt lat="44.35393" lon="3.02332">
        <ele>709</ele>
        <time>2020-02-14T09:58:54.000Z</time>
      </trkpt>
      <trkpt lat="44.3538" lon="3.02335">
        <ele>697</ele>
        <time>2020-02-14T09:59:16.000Z</time>
      </trkpt>
      <trkpt lat="44.35369" lon="3.02339">
        <ele>712</ele>
        <time>2020-02-14T09:59:26.000Z</time>
      </trkpt>
      <trkpt lat="44.35351" lon="3.02353">
        <ele>709</ele>
        <time>2020-02-14T09:59:41.000Z</time>
      </trkpt>
      <trkpt lat="44.35344" lon="3.02363">
        <ele>715.8</ele>
        <time>2020-02-14T09:59:51.000Z</time>
      </trkpt>
      <trkpt lat="44.35341" lon="3.02377">
        <ele>710</ele>
        <time>2020-02-14T09:59:55.000Z</time>
      </trkpt>
      <trkpt lat="44.35349" lon="3.02424">
        <ele>715</ele>
        <time>2020-02-14T10:01:34.000Z</time>
      </trkpt>
      <trkpt lat="44.35362" lon="3.02483">
        <ele>718</ele>
        <time>2020-02-14T10:02:06.000Z</time>
      </trkpt>
      <trkpt lat="44.35362" lon="3.02496">
        <ele>726.6</ele>
        <time>2020-02-14T10:02:16.000Z</time>
      </trkpt>
      <trkpt lat="44.35361" lon="3.0251">
        <ele>721</ele>
        <time>2020-02-14T10:02:19.000Z</time>
      </trkpt>
      <trkpt lat="44.35365" lon="3.0254">
        <ele>725</ele>
        <time>2020-02-14T10:02:33.000Z</time>
      </trkpt>
      <trkpt lat="44.35366" lon="3.02554">
        <ele>732.5</ele>
        <time>2020-02-14T10:02:43.000Z</time>
      </trkpt>
      <trkpt lat="44.35368" lon="3.02567">
        <ele>730</ele>
        <time>2020-02-14T10:02:46.000Z</time>
      </trkpt>
      <trkpt lat="44.35371" lon="3.0258">
        <ele>734.4</ele>
        <time>2020-02-14T10:02:56.000Z</time>
      </trkpt>
      <trkpt lat="44.35372" lon="3.02592">
        <ele>735</ele>
        <time>2020-02-14T10:03:06.000Z</time>
      </trkpt>
      <trkpt lat="44.35376" lon="3.02604">
        <ele>735</ele>
        <time>2020-02-14T10:03:04.000Z</time>
      </trkpt>
      <trkpt lat="44.35376" lon="3.02618">
        <ele>736.6</ele>
        <time>2020-02-14T10:03:14.000Z</time>
      </trkpt>
      <trkpt lat="44.35381" lon="3.02629">
        <ele>737</ele>
        <time>2020-02-14T10:03:24.000Z</time>
      </trkpt>
      <trkpt lat="44.3539" lon="3.02636">
        <ele>738.7</ele>
        <time>2020-02-14T10:03:34.000Z</time>
      </trkpt>
      <trkpt lat="44.35399" lon="3.02639">
        <ele>739</ele>
        <time>2020-02-14T10:03:33.000Z</time>
      </trkpt>
      <trkpt lat="44.35409" lon="3.02641">
        <ele>739.2</ele>
        <time>2020-02-14T10:03:43.000Z</time>
      </trkpt>
      <trkpt lat="44.35428" lon="3.02648">
        <ele>738</ele>
        <time>2020-02-14T10:03:49.000Z</time>
      </trkpt>
      <trkpt lat="44.35455" lon="3.02655">
        <ele>740</ele>
        <time>2020-02-14T10:04:08.000Z</time>
      </trkpt>
      <trkpt lat="44.35463" lon="3.02658">
        <ele>743.9</ele>
        <time>2020-02-14T10:04:18.000Z</time>
      </trkpt>
      <trkpt lat="44.35473" lon="3.02665">
        <ele>740</ele>
        <time>2020-02-14T10:04:22.000Z</time>
      </trkpt>
      <trkpt lat="44.3548" lon="3.02674">
        <ele>746.1</ele>
        <time>2020-02-14T10:04:32.000Z</time>
      </trkpt>
      <trkpt lat="44.35483" lon="3.02679">
        <ele>746.7</ele>
        <time>2020-02-14T10:04:42.000Z</time>
      </trkpt>
      <trkpt lat="44.35488" lon="3.02698">
        <ele>741</ele>
        <time>2020-02-14T10:07:11.000Z</time>
      </trkpt>
      <trkpt lat="44.3549" lon="3.02711">
        <ele>749.5</ele>
        <time>2020-02-14T10:07:21.000Z</time>
      </trkpt>
      <trkpt lat="44.35487" lon="3.02725">
        <ele>742</ele>
        <time>2020-02-14T10:07:28.000Z</time>
      </trkpt>
      <trkpt lat="44.35485" lon="3.02738">
        <ele>750.5</ele>
        <time>2020-02-14T10:07:38.000Z</time>
      </trkpt>
      <trkpt lat="44.35486" lon="3.0275">
        <ele>751</ele>
        <time>2020-02-14T10:07:48.000Z</time>
      </trkpt>
      <trkpt lat="44.3549" lon="3.0278">
        <ele>746</ele>
        <time>2020-02-14T10:08:54.000Z</time>
      </trkpt>
      <trkpt lat="44.35487" lon="3.02823">
        <ele>748</ele>
        <time>2020-02-14T10:10:13.000Z</time>
      </trkpt>
      <trkpt lat="44.3549" lon="3.02851">
        <ele>750</ele>
        <time>2020-02-14T10:10:25.000Z</time>
      </trkpt>
      <trkpt lat="44.3549" lon="3.02865">
        <ele>757.2</ele>
        <time>2020-02-14T10:10:35.000Z</time>
      </trkpt>
      <trkpt lat="44.35486" lon="3.02878">
        <ele>750</ele>
        <time>2020-02-14T10:10:38.000Z</time>
      </trkpt>
      <trkpt lat="44.35481" lon="3.0289">
        <ele>758.4</ele>
        <time>2020-02-14T10:10:48.000Z</time>
      </trkpt>
      <trkpt lat="44.35477" lon="3.02909">
        <ele>751</ele>
        <time>2020-02-14T10:10:53.000Z</time>
      </trkpt>
      <trkpt lat="44.35473" lon="3.02921">
        <ele>759.4</ele>
        <time>2020-02-14T10:11:03.000Z</time>
      </trkpt>
      <trkpt lat="44.35496" lon="3.02922">
        <ele>753</ele>
        <time>2020-02-14T10:13:10.000Z</time>
      </trkpt>
      <trkpt lat="44.35498" lon="3.02931">
        <ele>761.4</ele>
        <time>2020-02-14T10:13:20.000Z</time>
      </trkpt>
      <trkpt lat="44.35497" lon="3.02947">
        <ele>762.1</ele>
        <time>2020-02-14T10:13:30.000Z</time>
      </trkpt>
      <trkpt lat="44.355" lon="3.02991">
        <ele>759</ele>
        <time>2020-02-14T10:15:02.000Z</time>
      </trkpt>
      <trkpt lat="44.35505" lon="3.03003">
        <ele>766.8</ele>
        <time>2020-02-14T10:15:12.000Z</time>
      </trkpt>
      <trkpt lat="44.35507" lon="3.03016">
        <ele>759</ele>
        <time>2020-02-14T10:15:21.000Z</time>
      </trkpt>
      <trkpt lat="44.3551" lon="3.0304">
        <ele>769.7</ele>
        <time>2020-02-14T10:15:31.000Z</time>
      </trkpt>
      <trkpt lat="44.35511" lon="3.03067">
        <ele>765</ele>
        <time>2020-02-14T10:15:43.000Z</time>
      </trkpt>
      <trkpt lat="44.35513" lon="3.0308">
        <ele>772.2</ele>
        <time>2020-02-14T10:15:53.000Z</time>
      </trkpt>
      <trkpt lat="44.35526" lon="3.03109">
        <ele>771</ele>
        <time>2020-02-14T10:16:13.000Z</time>
      </trkpt>
      <trkpt lat="44.35532" lon="3.0312">
        <ele>777.1</ele>
        <time>2020-02-14T10:16:23.000Z</time>
      </trkpt>
      <trkpt lat="44.35536" lon="3.0315">
        <ele>772</ele>
        <time>2020-02-14T10:18:56.000Z</time>
      </trkpt>
      <trkpt lat="44.35538" lon="3.03178">
        <ele>772</ele>
        <time>2020-02-14T10:19:09.000Z</time>
      </trkpt>
      <trkpt lat="44.3554" lon="3.03193">
        <ele>782.1</ele>
        <time>2020-02-14T10:19:19.000Z</time>
      </trkpt>
      <trkpt lat="44.3554" lon="3.03209">
        <ele>776</ele>
        <time>2020-02-14T10:19:25.000Z</time>
      </trkpt>
      <trkpt lat="44.35541" lon="3.03221">
        <ele>784.3</ele>
        <time>2020-02-14T10:19:35.000Z</time>
      </trkpt>
      <trkpt lat="44.35541" lon="3.03238">
        <ele>778</ele>
        <time>2020-02-14T10:19:39.000Z</time>
      </trkpt>
      <trkpt lat="44.35542" lon="3.03252">
        <ele>787.8</ele>
        <time>2020-02-14T10:19:49.000Z</time>
      </trkpt>
      <trkpt lat="44.35541" lon="3.03272">
        <ele>787</ele>
        <time>2020-02-14T10:19:54.000Z</time>
      </trkpt>
      <trkpt lat="44.35541" lon="3.03303">
        <ele>791</ele>
        <time>2020-02-14T10:20:10.000Z</time>
      </trkpt>
      <trkpt lat="44.3554" lon="3.03321">
        <ele>795.5</ele>
        <time>2020-02-14T10:20:20.000Z</time>
      </trkpt>
      <trkpt lat="44.35548" lon="3.03354">
        <ele>798</ele>
        <time>2020-02-14T10:20:38.000Z</time>
      </trkpt>
      <trkpt lat="44.35557" lon="3.03397">
        <ele>799</ele>
        <time>2020-02-14T10:21:39.000Z</time>
      </trkpt>
      <trkpt lat="44.35559" lon="3.0341">
        <ele>805.5</ele>
        <time>2020-02-14T10:21:49.000Z</time>
      </trkpt>
      <trkpt lat="44.35565" lon="3.0344">
        <ele>803</ele>
        <time>2020-02-14T10:22:03.000Z</time>
      </trkpt>
      <trkpt lat="44.35572" lon="3.03463">
        <ele>808.5</ele>
        <time>2020-02-14T10:22:13.000Z</time>
      </trkpt>
      <trkpt lat="44.35574" lon="3.03474">
        <ele>805</ele>
        <time>2020-02-14T10:22:28.000Z</time>
      </trkpt>
      <trkpt lat="44.35584" lon="3.03505">
        <ele>805</ele>
        <time>2020-02-14T10:22:47.000Z</time>
      </trkpt>
      <trkpt lat="44.35587" lon="3.03523">
        <ele>809.3</ele>
        <time>2020-02-14T10:22:57.000Z</time>
      </trkpt>
      <trkpt lat="44.35595" lon="3.03549">
        <ele>805</ele>
        <time>2020-02-14T10:23:15.000Z</time>
      </trkpt>
      <trkpt lat="44.3562" lon="3.03586">
        <ele>806</ele>
        <time>2020-02-14T10:23:34.000Z</time>
      </trkpt>
      <trkpt lat="44.35626" lon="3.03602">
        <ele>805.6</ele>
        <time>2020-02-14T10:23:44.000Z</time>
      </trkpt>
      <trkpt lat="44.35633" lon="3.03611">
        <ele>806</ele>
        <time>2020-02-14T10:23:56.000Z</time>
      </trkpt>
      <trkpt lat="44.35644" lon="3.03633">
        <ele>804</ele>
        <time>2020-02-14T10:24:06.000Z</time>
      </trkpt>
      <trkpt lat="44.35672" lon="3.03676">
        <ele>806</ele>
        <time>2020-02-14T10:24:32.000Z</time>
      </trkpt>
      <trkpt lat="44.35688" lon="3.03694">
        <ele>803</ele>
        <time>2020-02-14T10:24:44.000Z</time>
      </trkpt>
      <trkpt lat="44.35695" lon="3.03704">
        <ele>800</ele>
        <time>2020-02-14T10:24:54.000Z</time>
      </trkpt>
      <trkpt lat="44.35702" lon="3.03715">
        <ele>800</ele>
        <time>2020-02-14T10:24:59.000Z</time>
      </trkpt>
      <trkpt lat="44.35728" lon="3.03762">
        <ele>797</ele>
        <time>2020-02-14T10:25:25.000Z</time>
      </trkpt>
      <trkpt lat="44.35732" lon="3.03778">
        <ele>798.7</ele>
        <time>2020-02-14T10:25:35.000Z</time>
      </trkpt>
      <trkpt lat="44.35734" lon="3.0379">
        <ele>794</ele>
        <time>2020-02-14T10:25:40.000Z</time>
      </trkpt>
      <trkpt lat="44.35735" lon="3.03817">
        <ele>793</ele>
        <time>2020-02-14T10:25:50.000Z</time>
      </trkpt>
      <trkpt lat="44.35749" lon="3.03838">
        <ele>792</ele>
        <time>2020-02-14T10:27:23.000Z</time>
      </trkpt>
      <trkpt lat="44.35756" lon="3.03847">
        <ele>797.8</ele>
        <time>2020-02-14T10:27:33.000Z</time>
      </trkpt>
      <trkpt lat="44.35765" lon="3.03852">
        <ele>798</ele>
        <time>2020-02-14T10:27:43.000Z</time>
      </trkpt>
      <trkpt lat="44.35775" lon="3.0386">
        <ele>792</ele>
        <time>2020-02-14T10:27:46.000Z</time>
      </trkpt>
      <trkpt lat="44.35786" lon="3.03866">
        <ele>798.4</ele>
        <time>2020-02-14T10:27:56.000Z</time>
      </trkpt>
      <trkpt lat="44.35797" lon="3.03874">
        <ele>792</ele>
        <time>2020-02-14T10:28:02.000Z</time>
      </trkpt>
      <trkpt lat="44.35808" lon="3.03877">
        <ele>798.9</ele>
        <time>2020-02-14T10:28:12.000Z</time>
      </trkpt>
      <trkpt lat="44.35819" lon="3.03877">
        <ele>790</ele>
        <time>2020-02-14T10:28:18.000Z</time>
      </trkpt>
      <trkpt lat="44.35837" lon="3.03866">
        <ele>788</ele>
        <time>2020-02-14T10:28:44.000Z</time>
      </trkpt>
      <trkpt lat="44.35849" lon="3.03856">
        <ele>799.8</ele>
        <time>2020-02-14T10:28:54.000Z</time>
      </trkpt>
      <trkpt lat="44.35855" lon="3.03846">
        <ele>787</ele>
        <time>2020-02-14T10:28:58.000Z</time>
      </trkpt>
      <trkpt lat="44.35867" lon="3.03823">
        <ele>787</ele>
        <time>2020-02-14T10:29:12.000Z</time>
      </trkpt>
      <trkpt lat="44.35882" lon="3.03783">
        <ele>793</ele>
        <time>2020-02-14T10:29:34.000Z</time>
      </trkpt>
      <trkpt lat="44.35889" lon="3.03772">
        <ele>802.4</ele>
        <time>2020-02-14T10:29:44.000Z</time>
      </trkpt>
      <trkpt lat="44.3591" lon="3.03724">
        <ele>795</ele>
        <time>2020-02-14T10:30:02.000Z</time>
      </trkpt>
      <trkpt lat="44.35918" lon="3.03714">
        <ele>803.5</ele>
        <time>2020-02-14T10:30:12.000Z</time>
      </trkpt>
      <trkpt lat="44.35936" lon="3.03697">
        <ele>799</ele>
        <time>2020-02-14T10:30:24.000Z</time>
      </trkpt>
      <trkpt lat="44.35945" lon="3.03692">
        <ele>803.4</ele>
        <time>2020-02-14T10:30:34.000Z</time>
      </trkpt>
      <trkpt lat="44.35956" lon="3.03688">
        <ele>800</ele>
        <time>2020-02-14T10:30:38.000Z</time>
      </trkpt>
      <trkpt lat="44.35977" lon="3.03685">
        <ele>801</ele>
        <time>2020-02-14T10:30:52.000Z</time>
      </trkpt>
      <trkpt lat="44.3599" lon="3.03685">
        <ele>805</ele>
        <time>2020-02-14T10:31:02.000Z</time>
      </trkpt>
      <trkpt lat="44.36001" lon="3.03687">
        <ele>801</ele>
        <time>2020-02-14T10:31:10.000Z</time>
      </trkpt>
      <trkpt lat="44.36019" lon="3.03694">
        <ele>805.4</ele>
        <time>2020-02-14T10:31:20.000Z</time>
      </trkpt>
      <trkpt lat="44.36058" lon="3.03698">
        <ele>800</ele>
        <time>2020-02-14T10:32:22.000Z</time>
      </trkpt>
      <trkpt lat="44.36087" lon="3.03704">
        <ele>801</ele>
        <time>2020-02-14T10:32:40.000Z</time>
      </trkpt>
      <trkpt lat="44.36115" lon="3.03712">
        <ele>799</ele>
        <time>2020-02-14T10:32:58.000Z</time>
      </trkpt>
      <trkpt lat="44.36137" lon="3.03714">
        <ele>798</ele>
        <time>2020-02-14T10:33:11.000Z</time>
      </trkpt>
      <trkpt lat="44.36157" lon="3.03711">
        <ele>798</ele>
        <time>2020-02-14T10:33:34.000Z</time>
      </trkpt>
      <trkpt lat="44.36167" lon="3.03708">
        <ele>808.5</ele>
        <time>2020-02-14T10:33:44.000Z</time>
      </trkpt>
      <trkpt lat="44.36178" lon="3.03711">
        <ele>798</ele>
        <time>2020-02-14T10:35:03.000Z</time>
      </trkpt>
      <trkpt lat="44.36188" lon="3.03716">
        <ele>805.4</ele>
        <time>2020-02-14T10:35:13.000Z</time>
      </trkpt>
      <trkpt lat="44.36198" lon="3.03738">
        <ele>802</ele>
        <time>2020-02-14T10:35:21.000Z</time>
      </trkpt>
      <trkpt lat="44.36203" lon="3.03751">
        <ele>808.1</ele>
        <time>2020-02-14T10:35:31.000Z</time>
      </trkpt>
      <trkpt lat="44.3621" lon="3.03762">
        <ele>802</ele>
        <time>2020-02-14T10:35:37.000Z</time>
      </trkpt>
      <trkpt lat="44.36239" lon="3.03778">
        <ele>802</ele>
        <time>2020-02-14T10:36:09.000Z</time>
      </trkpt>
      <trkpt lat="44.36256" lon="3.03784">
        <ele>806.3</ele>
        <time>2020-02-14T10:36:19.000Z</time>
      </trkpt>
      <trkpt lat="44.3627" lon="3.03795">
        <ele>802</ele>
        <time>2020-02-14T10:39:07.000Z</time>
      </trkpt>
      <trkpt lat="44.36283" lon="3.03801">
        <ele>804.4</ele>
        <time>2020-02-14T10:39:17.000Z</time>
      </trkpt>
      <trkpt lat="44.36295" lon="3.0381">
        <ele>799</ele>
        <time>2020-02-14T10:39:26.000Z</time>
      </trkpt>
      <trkpt lat="44.36303" lon="3.0382">
        <ele>804.2</ele>
        <time>2020-02-14T10:39:36.000Z</time>
      </trkpt>
      <trkpt lat="44.36309" lon="3.03849">
        <ele>799</ele>
        <time>2020-02-14T10:39:47.000Z</time>
      </trkpt>
      <trkpt lat="44.36312" lon="3.03861">
        <ele>804</ele>
        <time>2020-02-14T10:39:57.000Z</time>
      </trkpt>
      <trkpt lat="44.36317" lon="3.03873">
        <ele>803.3</ele>
        <time>2020-02-14T10:40:07.000Z</time>
      </trkpt>
      <trkpt lat="44.3632" lon="3.03888">
        <ele>796</ele>
        <time>2020-02-14T10:40:05.000Z</time>
      </trkpt>
      <trkpt lat="44.36324" lon="3.039">
        <ele>802.1</ele>
        <time>2020-02-14T10:40:15.000Z</time>
      </trkpt>
      <trkpt lat="44.36331" lon="3.03909">
        <ele>802.1</ele>
        <time>2020-02-14T10:40:25.000Z</time>
      </trkpt>
      <trkpt lat="44.3634" lon="3.03932">
        <ele>793</ele>
        <time>2020-02-14T10:40:27.000Z</time>
      </trkpt>
      <trkpt lat="44.36343" lon="3.03945">
        <ele>802</ele>
        <time>2020-02-14T10:40:37.000Z</time>
      </trkpt>
      <trkpt lat="44.36347" lon="3.03958">
        <ele>794</ele>
        <time>2020-02-14T10:40:41.000Z</time>
      </trkpt>
      <trkpt lat="44.36352" lon="3.03969">
        <ele>803</ele>
        <time>2020-02-14T10:40:51.000Z</time>
      </trkpt>
      <trkpt lat="44.36357" lon="3.03986">
        <ele>796</ele>
        <time>2020-02-14T10:40:56.000Z</time>
      </trkpt>
      <trkpt lat="44.36362" lon="3.04004">
        <ele>805.4</ele>
        <time>2020-02-14T10:41:06.000Z</time>
      </trkpt>
      <trkpt lat="44.36369" lon="3.04052">
        <ele>799</ele>
        <time>2020-02-14T10:41:28.000Z</time>
      </trkpt>
      <trkpt lat="44.36374" lon="3.04063">
        <ele>810.2</ele>
        <time>2020-02-14T10:41:38.000Z</time>
      </trkpt>
      <trkpt lat="44.36383" lon="3.04077">
        <ele>804</ele>
        <time>2020-02-14T10:41:43.000Z</time>
      </trkpt>
      <trkpt lat="44.36392" lon="3.04085">
        <ele>814.3</ele>
        <time>2020-02-14T10:41:53.000Z</time>
      </trkpt>
      <trkpt lat="44.3642" lon="3.04129">
        <ele>809</ele>
        <time>2020-02-14T10:42:19.000Z</time>
      </trkpt>
      <trkpt lat="44.36439" lon="3.04147">
        <ele>809</ele>
        <time>2020-02-14T10:42:34.000Z</time>
      </trkpt>
      <trkpt lat="44.36456" lon="3.04157">
        <ele>821.6</ele>
        <time>2020-02-14T10:42:44.000Z</time>
      </trkpt>
      <trkpt lat="44.36477" lon="3.04165">
        <ele>816</ele>
        <time>2020-02-14T10:43:04.000Z</time>
      </trkpt>
      <trkpt lat="44.36494" lon="3.04179">
        <ele>819</ele>
        <time>2020-02-14T10:43:17.000Z</time>
      </trkpt>
      <trkpt lat="44.36514" lon="3.04193">
        <ele>822</ele>
        <time>2020-02-14T10:43:29.000Z</time>
      </trkpt>
      <trkpt lat="44.36525" lon="3.04199">
        <ele>828</ele>
        <time>2020-02-14T10:43:39.000Z</time>
      </trkpt>
      <trkpt lat="44.36534" lon="3.04207">
        <ele>829</ele>
        <time>2020-02-14T10:43:45.000Z</time>
      </trkpt>
      <trkpt lat="44.36543" lon="3.04212">
        <ele>830.7</ele>
        <time>2020-02-14T10:43:55.000Z</time>
      </trkpt>
      <trkpt lat="44.36552" lon="3.0422">
        <ele>835</ele>
        <time>2020-02-14T10:44:02.000Z</time>
      </trkpt>
      <trkpt lat="44.3656" lon="3.0423">
        <ele>833.7</ele>
        <time>2020-02-14T10:44:12.000Z</time>
      </trkpt>
      <trkpt lat="44.36577" lon="3.04246">
        <ele>841</ele>
        <time>2020-02-14T10:44:29.000Z</time>
      </trkpt>
      <trkpt lat="44.366" lon="3.04271">
        <ele>841</ele>
        <time>2020-02-14T10:44:55.000Z</time>
      </trkpt>
      <trkpt lat="44.36629" lon="3.04305">
        <ele>846</ele>
        <time>2020-02-14T10:45:29.000Z</time>
      </trkpt>
      <trkpt lat="44.36637" lon="3.04313">
        <ele>850.5</ele>
        <time>2020-02-14T10:45:39.000Z</time>
      </trkpt>
      <trkpt lat="44.36644" lon="3.04323">
        <ele>846</ele>
        <time>2020-02-14T10:45:46.000Z</time>
      </trkpt>
      <trkpt lat="44.36653" lon="3.04352">
        <ele>846</ele>
        <time>2020-02-14T10:46:08.000Z</time>
      </trkpt>
      <trkpt lat="44.36661" lon="3.04364">
        <ele>856</ele>
        <time>2020-02-14T10:46:18.000Z</time>
      </trkpt>
      <trkpt lat="44.36669" lon="3.04373">
        <ele>851</ele>
        <time>2020-02-14T10:46:22.000Z</time>
      </trkpt>
      <trkpt lat="44.36676" lon="3.04384">
        <ele>857.7</ele>
        <time>2020-02-14T10:46:32.000Z</time>
      </trkpt>
      <trkpt lat="44.36681" lon="3.04386">
        <ele>858.1</ele>
        <time>2020-02-14T10:46:42.000Z</time>
      </trkpt>
      <trkpt lat="44.3669" lon="3.04392">
        <ele>853</ele>
        <time>2020-02-14T10:47:50.000Z</time>
      </trkpt>
      <trkpt lat="44.3668" lon="3.04392">
        <ele>858.3</ele>
        <time>2020-02-14T10:48:00.000Z</time>
      </trkpt>
      <trkpt lat="44.36671" lon="3.0439">
        <ele>857.4</ele>
        <time>2020-02-14T10:48:10.000Z</time>
      </trkpt>
      <trkpt lat="44.3666" lon="3.04389">
        <ele>853</ele>
        <time>2020-02-14T10:49:20.000Z</time>
      </trkpt>
      <trkpt lat="44.3665" lon="3.04395">
        <ele>856.3</ele>
        <time>2020-02-14T10:49:30.000Z</time>
      </trkpt>
      <trkpt lat="44.3663" lon="3.044">
        <ele>845</ele>
        <time>2020-02-14T10:49:57.000Z</time>
      </trkpt>
      <trkpt lat="44.36611" lon="3.04407">
        <ele>840</ele>
        <time>2020-02-14T10:50:07.000Z</time>
      </trkpt>
      <trkpt lat="44.36602" lon="3.04408">
        <ele>852.1</ele>
        <time>2020-02-14T10:50:17.000Z</time>
      </trkpt>
      <trkpt lat="44.36572" lon="3.04419">
        <ele>837</ele>
        <time>2020-02-14T10:50:40.000Z</time>
      </trkpt>
      <trkpt lat="44.36552" lon="3.04429">
        <ele>833</ele>
        <time>2020-02-14T10:50:51.000Z</time>
      </trkpt>
      <trkpt lat="44.36544" lon="3.04434">
        <ele>847.8</ele>
        <time>2020-02-14T10:51:01.000Z</time>
      </trkpt>
      <trkpt lat="44.36534" lon="3.04442">
        <ele>830</ele>
        <time>2020-02-14T10:51:05.000Z</time>
      </trkpt>
      <trkpt lat="44.36524" lon="3.04446">
        <ele>845.5</ele>
        <time>2020-02-14T10:51:15.000Z</time>
      </trkpt>
      <trkpt lat="44.36503" lon="3.04459">
        <ele>829</ele>
        <time>2020-02-14T10:51:28.000Z</time>
      </trkpt>
      <trkpt lat="44.36492" lon="3.04461">
        <ele>842.8</ele>
        <time>2020-02-14T10:51:38.000Z</time>
      </trkpt>
      <trkpt lat="44.36463" lon="3.0446">
        <ele>828</ele>
        <time>2020-02-14T10:51:56.000Z</time>
      </trkpt>
      <trkpt lat="44.36453" lon="3.04461">
        <ele>840.4</ele>
        <time>2020-02-14T10:52:06.000Z</time>
      </trkpt>
      <trkpt lat="44.36432" lon="3.04465">
        <ele>823</ele>
        <time>2020-02-14T10:52:16.000Z</time>
      </trkpt>
      <trkpt lat="44.36421" lon="3.04464">
        <ele>838.8</ele>
        <time>2020-02-14T10:52:26.000Z</time>
      </trkpt>
      <trkpt lat="44.36412" lon="3.04465">
        <ele>823</ele>
        <time>2020-02-14T10:52:30.000Z</time>
      </trkpt>
      <trkpt lat="44.36391" lon="3.0447">
        <ele>821</ele>
        <time>2020-02-14T10:52:43.000Z</time>
      </trkpt>
      <trkpt lat="44.36369" lon="3.04472">
        <ele>820</ele>
        <time>2020-02-14T10:52:59.000Z</time>
      </trkpt>
      <trkpt lat="44.36349" lon="3.04479">
        <ele>818</ele>
        <time>2020-02-14T10:53:13.000Z</time>
      </trkpt>
      <trkpt lat="44.36338" lon="3.04484">
        <ele>832</ele>
        <time>2020-02-14T10:53:23.000Z</time>
      </trkpt>
      <trkpt lat="44.36328" lon="3.04492">
        <ele>817</ele>
        <time>2020-02-14T10:53:29.000Z</time>
      </trkpt>
      <trkpt lat="44.36319" lon="3.04502">
        <ele>830.2</ele>
        <time>2020-02-14T10:53:39.000Z</time>
      </trkpt>
      <trkpt lat="44.36311" lon="3.04514">
        <ele>814</ele>
        <time>2020-02-14T10:53:45.000Z</time>
      </trkpt>
      <trkpt lat="44.36295" lon="3.04534">
        <ele>813</ele>
        <time>2020-02-14T10:54:00.000Z</time>
      </trkpt>
      <trkpt lat="44.36287" lon="3.04545">
        <ele>828.1</ele>
        <time>2020-02-14T10:54:10.000Z</time>
      </trkpt>
      <trkpt lat="44.36254" lon="3.04583">
        <ele>813</ele>
        <time>2020-02-14T10:54:43.000Z</time>
      </trkpt>
      <trkpt lat="44.36246" lon="3.04594">
        <ele>824.5</ele>
        <time>2020-02-14T10:54:53.000Z</time>
      </trkpt>
      <trkpt lat="44.36237" lon="3.04603">
        <ele>810</ele>
        <time>2020-02-14T10:54:59.000Z</time>
      </trkpt>
      <trkpt lat="44.36224" lon="3.04623">
        <ele>810</ele>
        <time>2020-02-14T10:55:13.000Z</time>
      </trkpt>
      <trkpt lat="44.36216" lon="3.04631">
        <ele>821.8</ele>
        <time>2020-02-14T10:55:23.000Z</time>
      </trkpt>
      <trkpt lat="44.3621" lon="3.04643">
        <ele>812</ele>
        <time>2020-02-14T10:55:29.000Z</time>
      </trkpt>
      <trkpt lat="44.36201" lon="3.04653">
        <ele>820.6</ele>
        <time>2020-02-14T10:55:39.000Z</time>
      </trkpt>
      <trkpt lat="44.36193" lon="3.04664">
        <ele>811</ele>
        <time>2020-02-14T10:55:47.000Z</time>
      </trkpt>
      <trkpt lat="44.36185" lon="3.04672">
        <ele>818.8</ele>
        <time>2020-02-14T10:55:57.000Z</time>
      </trkpt>
      <trkpt lat="44.36177" lon="3.04682">
        <ele>811</ele>
        <time>2020-02-14T10:56:40.000Z</time>
      </trkpt>
      <trkpt lat="44.36171" lon="3.04695">
        <ele>816.7</ele>
        <time>2020-02-14T10:56:50.000Z</time>
      </trkpt>
      <trkpt lat="44.36167" lon="3.04708">
        <ele>811</ele>
        <time>2020-02-14T10:56:56.000Z</time>
      </trkpt>
      <trkpt lat="44.36167" lon="3.04722">
        <ele>814.1</ele>
        <time>2020-02-14T10:57:06.000Z</time>
      </trkpt>
      <trkpt lat="44.36168" lon="3.04739">
        <ele>811</ele>
        <time>2020-02-14T10:57:10.000Z</time>
      </trkpt>
      <trkpt lat="44.36162" lon="3.04749">
        <ele>813.3</ele>
        <time>2020-02-14T10:57:20.000Z</time>
      </trkpt>
      <trkpt lat="44.36159" lon="3.04748">
        <ele>812.9</ele>
        <time>2020-02-14T10:57:30.000Z</time>
      </trkpt>
      <trkpt lat="44.36158" lon="3.04734">
        <ele>806</ele>
        <time>2020-02-14T11:03:17.000Z</time>
      </trkpt>
      <trkpt lat="44.36155" lon="3.04718">
        <ele>811.7</ele>
        <time>2020-02-14T11:03:27.000Z</time>
      </trkpt>
      <trkpt lat="44.36148" lon="3.04696">
        <ele>801</ele>
        <time>2020-02-14T11:03:35.000Z</time>
      </trkpt>
      <trkpt lat="44.36112" lon="3.04654">
        <ele>801</ele>
        <time>2020-02-14T11:04:02.000Z</time>
      </trkpt>
      <trkpt lat="44.36104" lon="3.04646">
        <ele>805.9</ele>
        <time>2020-02-14T11:04:12.000Z</time>
      </trkpt>
      <trkpt lat="44.36061" lon="3.04581">
        <ele>797</ele>
        <time>2020-02-14T11:04:45.000Z</time>
      </trkpt>
      <trkpt lat="44.36053" lon="3.04572">
        <ele>800.8</ele>
        <time>2020-02-14T11:04:55.000Z</time>
      </trkpt>
      <trkpt lat="44.36046" lon="3.04561">
        <ele>795</ele>
        <time>2020-02-14T11:04:57.000Z</time>
      </trkpt>
      <trkpt lat="44.3604" lon="3.0455">
        <ele>799.7</ele>
        <time>2020-02-14T11:05:07.000Z</time>
      </trkpt>
      <trkpt lat="44.36025" lon="3.04514">
        <ele>794</ele>
        <time>2020-02-14T11:05:21.000Z</time>
      </trkpt>
      <trkpt lat="44.3602" lon="3.04501">
        <ele>797.2</ele>
        <time>2020-02-14T11:05:31.000Z</time>
      </trkpt>
      <trkpt lat="44.36004" lon="3.04452">
        <ele>791</ele>
        <time>2020-02-14T11:05:48.000Z</time>
      </trkpt>
      <trkpt lat="44.35992" lon="3.04429">
        <ele>790</ele>
        <time>2020-02-14T11:06:17.000Z</time>
      </trkpt>
      <trkpt lat="44.35986" lon="3.0442">
        <ele>796.9</ele>
        <time>2020-02-14T11:06:27.000Z</time>
      </trkpt>
      <trkpt lat="44.35965" lon="3.04394">
        <ele>789</ele>
        <time>2020-02-14T11:06:50.000Z</time>
      </trkpt>
      <trkpt lat="44.35958" lon="3.04382">
        <ele>796.8</ele>
        <time>2020-02-14T11:07:00.000Z</time>
      </trkpt>
      <trkpt lat="44.35949" lon="3.04372">
        <ele>789</ele>
        <time>2020-02-14T11:07:06.000Z</time>
      </trkpt>
      <trkpt lat="44.35937" lon="3.04349">
        <ele>791</ele>
        <time>2020-02-14T11:07:20.000Z</time>
      </trkpt>
      <trkpt lat="44.35932" lon="3.04335">
        <ele>796.4</ele>
        <time>2020-02-14T11:07:30.000Z</time>
      </trkpt>
      <trkpt lat="44.35925" lon="3.04324">
        <ele>791</ele>
        <time>2020-02-14T11:07:35.000Z</time>
      </trkpt>
      <trkpt lat="44.35917" lon="3.04301">
        <ele>796.8</ele>
        <time>2020-02-14T11:07:45.000Z</time>
      </trkpt>
      <trkpt lat="44.35904" lon="3.04259">
        <ele>789</ele>
        <time>2020-02-14T11:08:07.000Z</time>
      </trkpt>
      <trkpt lat="44.359" lon="3.04248">
        <ele>796.1</ele>
        <time>2020-02-14T11:08:17.000Z</time>
      </trkpt>
      <trkpt lat="44.35894" lon="3.04235">
        <ele>790</ele>
        <time>2020-02-14T11:08:21.000Z</time>
      </trkpt>
      <trkpt lat="44.35878" lon="3.04212">
        <ele>787</ele>
        <time>2020-02-14T11:08:36.000Z</time>
      </trkpt>
      <trkpt lat="44.35872" lon="3.04201">
        <ele>795.5</ele>
        <time>2020-02-14T11:08:46.000Z</time>
      </trkpt>
      <trkpt lat="44.35848" lon="3.0417">
        <ele>785</ele>
        <time>2020-02-14T11:09:03.000Z</time>
      </trkpt>
      <trkpt lat="44.35841" lon="3.04162">
        <ele>795.3</ele>
        <time>2020-02-14T11:09:13.000Z</time>
      </trkpt>
      <trkpt lat="44.35828" lon="3.0414">
        <ele>783</ele>
        <time>2020-02-14T11:09:22.000Z</time>
      </trkpt>
      <trkpt lat="44.35822" lon="3.04126">
        <ele>794</ele>
        <time>2020-02-14T11:09:32.000Z</time>
      </trkpt>
      <trkpt lat="44.35812" lon="3.04098">
        <ele>783</ele>
        <time>2020-02-14T11:09:56.000Z</time>
      </trkpt>
      <trkpt lat="44.35808" lon="3.04082">
        <ele>792.6</ele>
        <time>2020-02-14T11:10:06.000Z</time>
      </trkpt>
      <trkpt lat="44.35803" lon="3.0407">
        <ele>783</ele>
        <time>2020-02-14T11:10:09.000Z</time>
      </trkpt>
      <trkpt lat="44.35797" lon="3.04037">
        <ele>785</ele>
        <time>2020-02-14T11:10:19.000Z</time>
      </trkpt>
      <trkpt lat="44.35791" lon="3.04004">
        <ele>787</ele>
        <time>2020-02-14T11:10:37.000Z</time>
      </trkpt>
      <trkpt lat="44.35784" lon="3.03995">
        <ele>790.6</ele>
        <time>2020-02-14T11:10:47.000Z</time>
      </trkpt>
      <trkpt lat="44.35773" lon="3.03995">
        <ele>787</ele>
        <time>2020-02-14T11:13:51.000Z</time>
      </trkpt>
      <trkpt lat="44.35763" lon="3.03996">
        <ele>789.5</ele>
        <time>2020-02-14T11:14:01.000Z</time>
      </trkpt>
      <trkpt lat="44.35741" lon="3.03995">
        <ele>786</ele>
        <time>2020-02-14T11:14:09.000Z</time>
      </trkpt>
      <trkpt lat="44.35722" lon="3.03993">
        <ele>788.5</ele>
        <time>2020-02-14T11:14:19.000Z</time>
      </trkpt>
      <trkpt lat="44.35666" lon="3.03991">
        <ele>782</ele>
        <time>2020-02-14T11:14:54.000Z</time>
      </trkpt>
      <trkpt lat="44.35642" lon="3.03988">
        <ele>779</ele>
        <time>2020-02-14T11:15:04.000Z</time>
      </trkpt>
      <trkpt lat="44.35617" lon="3.03986">
        <ele>776</ele>
        <time>2020-02-14T11:15:24.000Z</time>
      </trkpt>
      <trkpt lat="44.35582" lon="3.03986">
        <ele>776</ele>
        <time>2020-02-14T11:15:44.000Z</time>
      </trkpt>
      <trkpt lat="44.35562" lon="3.03989">
        <ele>777</ele>
        <time>2020-02-14T11:15:56.000Z</time>
      </trkpt>
      <trkpt lat="44.35541" lon="3.0399">
        <ele>783</ele>
        <time>2020-02-14T11:16:08.000Z</time>
      </trkpt>
      <trkpt lat="44.35521" lon="3.03996">
        <ele>783</ele>
        <time>2020-02-14T11:16:21.000Z</time>
      </trkpt>
      <trkpt lat="44.35512" lon="3.03997">
        <ele>787</ele>
        <time>2020-02-14T11:16:31.000Z</time>
      </trkpt>
      <trkpt lat="44.35498" lon="3.04002">
        <ele>781</ele>
        <time>2020-02-14T11:17:36.000Z</time>
      </trkpt>
      <trkpt lat="44.35492" lon="3.03959">
        <ele>779</ele>
        <time>2020-02-14T11:18:02.000Z</time>
      </trkpt>
      <trkpt lat="44.35471" lon="3.03961">
        <ele>778</ele>
        <time>2020-02-14T11:20:40.000Z</time>
      </trkpt>
      <trkpt lat="44.35461" lon="3.03966">
        <ele>786.8</ele>
        <time>2020-02-14T11:20:50.000Z</time>
      </trkpt>
      <trkpt lat="44.35452" lon="3.03972">
        <ele>780</ele>
        <time>2020-02-14T11:20:54.000Z</time>
      </trkpt>
      <trkpt lat="44.35443" lon="3.03975">
        <ele>786.8</ele>
        <time>2020-02-14T11:21:04.000Z</time>
      </trkpt>
      <trkpt lat="44.35422" lon="3.03988">
        <ele>778</ele>
        <time>2020-02-14T11:21:14.000Z</time>
      </trkpt>
      <trkpt lat="44.35413" lon="3.03992">
        <ele>785.6</ele>
        <time>2020-02-14T11:21:24.000Z</time>
      </trkpt>
      <trkpt lat="44.35402" lon="3.03999">
        <ele>777</ele>
        <time>2020-02-14T11:21:26.000Z</time>
      </trkpt>
      <trkpt lat="44.35394" lon="3.04007">
        <ele>784.5</ele>
        <time>2020-02-14T11:21:36.000Z</time>
      </trkpt>
      <trkpt lat="44.3536" lon="3.04028">
        <ele>778</ele>
        <time>2020-02-14T11:21:54.000Z</time>
      </trkpt>
      <trkpt lat="44.35319" lon="3.04038">
        <ele>779</ele>
        <time>2020-02-14T11:22:19.000Z</time>
      </trkpt>
      <trkpt lat="44.35299" lon="3.04044">
        <ele>779</ele>
        <time>2020-02-14T11:22:31.000Z</time>
      </trkpt>
      <trkpt lat="44.35288" lon="3.04045">
        <ele>780.7</ele>
        <time>2020-02-14T11:22:41.000Z</time>
      </trkpt>
      <trkpt lat="44.35259" lon="3.04041">
        <ele>776</ele>
        <time>2020-02-14T11:22:55.000Z</time>
      </trkpt>
      <trkpt lat="44.35247" lon="3.04036">
        <ele>779.4</ele>
        <time>2020-02-14T11:23:05.000Z</time>
      </trkpt>
      <trkpt lat="44.3524" lon="3.04028">
        <ele>775</ele>
        <time>2020-02-14T11:23:15.000Z</time>
      </trkpt>
      <trkpt lat="44.35224" lon="3.04022">
        <ele>777.8</ele>
        <time>2020-02-14T11:23:25.000Z</time>
      </trkpt>
      <trkpt lat="44.35214" lon="3.04022">
        <ele>775</ele>
        <time>2020-02-14T11:24:33.000Z</time>
      </trkpt>
      <trkpt lat="44.35194" lon="3.04024">
        <ele>776</ele>
        <time>2020-02-14T11:24:47.000Z</time>
      </trkpt>
      <trkpt lat="44.35184" lon="3.04028">
        <ele>776.6</ele>
        <time>2020-02-14T11:24:57.000Z</time>
      </trkpt>
      <trkpt lat="44.35166" lon="3.04031">
        <ele>777</ele>
        <time>2020-02-14T11:25:59.000Z</time>
      </trkpt>
      <trkpt lat="44.35145" lon="3.04034">
        <ele>773</ele>
        <time>2020-02-14T11:26:15.000Z</time>
      </trkpt>
      <trkpt lat="44.35133" lon="3.04034">
        <ele>775</ele>
        <time>2020-02-14T11:26:25.000Z</time>
      </trkpt>
      <trkpt lat="44.35113" lon="3.04027">
        <ele>769</ele>
        <time>2020-02-14T11:26:40.000Z</time>
      </trkpt>
      <trkpt lat="44.35079" lon="3.04011">
        <ele>763</ele>
        <time>2020-02-14T11:27:11.000Z</time>
      </trkpt>
      <trkpt lat="44.35069" lon="3.04009">
        <ele>772</ele>
        <time>2020-02-14T11:27:21.000Z</time>
      </trkpt>
      <trkpt lat="44.35061" lon="3.04003">
        <ele>770.8</ele>
        <time>2020-02-14T11:27:31.000Z</time>
      </trkpt>
      <trkpt lat="44.35051" lon="3.03999">
        <ele>760</ele>
        <time>2020-02-14T11:27:41.000Z</time>
      </trkpt>
      <trkpt lat="44.35038" lon="3.03987">
        <ele>769.6</ele>
        <time>2020-02-14T11:27:51.000Z</time>
      </trkpt>
      <trkpt lat="44.3502" lon="3.03974">
        <ele>757</ele>
        <time>2020-02-14T11:28:01.000Z</time>
      </trkpt>
      <trkpt lat="44.35012" lon="3.03964">
        <ele>766.6</ele>
        <time>2020-02-14T11:28:11.000Z</time>
      </trkpt>
      <trkpt lat="44.34995" lon="3.0395">
        <ele>755</ele>
        <time>2020-02-14T11:28:25.000Z</time>
      </trkpt>
      <trkpt lat="44.34988" lon="3.0394">
        <ele>763.9</ele>
        <time>2020-02-14T11:28:35.000Z</time>
      </trkpt>
      <trkpt lat="44.3498" lon="3.0393">
        <ele>751</ele>
        <time>2020-02-14T11:29:06.000Z</time>
      </trkpt>
      <trkpt lat="44.3497" lon="3.03925">
        <ele>762.3</ele>
        <time>2020-02-14T11:29:16.000Z</time>
      </trkpt>
      <trkpt lat="44.34957" lon="3.03906">
        <ele>751</ele>
        <time>2020-02-14T11:29:33.000Z</time>
      </trkpt>
      <trkpt lat="44.34939" lon="3.03891">
        <ele>749</ele>
        <time>2020-02-14T11:29:49.000Z</time>
      </trkpt>
      <trkpt lat="44.3493" lon="3.03882">
        <ele>756.2</ele>
        <time>2020-02-14T11:29:59.000Z</time>
      </trkpt>
      <trkpt lat="44.34925" lon="3.03872">
        <ele>747</ele>
        <time>2020-02-14T11:30:03.000Z</time>
      </trkpt>
      <trkpt lat="44.34917" lon="3.03864">
        <ele>753.4</ele>
        <time>2020-02-14T11:30:13.000Z</time>
      </trkpt>
      <trkpt lat="44.34908" lon="3.03853">
        <ele>745</ele>
        <time>2020-02-14T11:30:19.000Z</time>
      </trkpt>
      <trkpt lat="44.34902" lon="3.0384">
        <ele>749.7</ele>
        <time>2020-02-14T11:30:29.000Z</time>
      </trkpt>
      <trkpt lat="44.34897" lon="3.03829">
        <ele>744</ele>
        <time>2020-02-14T11:30:33.000Z</time>
      </trkpt>
      <trkpt lat="44.34887" lon="3.03788">
        <ele>740</ele>
        <time>2020-02-14T11:30:57.000Z</time>
      </trkpt>
      <trkpt lat="44.34882" lon="3.03774">
        <ele>742.4</ele>
        <time>2020-02-14T11:31:07.000Z</time>
      </trkpt>
      <trkpt lat="44.34875" lon="3.03762">
        <ele>734</ele>
        <time>2020-02-14T11:31:11.000Z</time>
      </trkpt>
      <trkpt lat="44.34868" lon="3.03753">
        <ele>738.6</ele>
        <time>2020-02-14T11:31:21.000Z</time>
      </trkpt>
      <trkpt lat="44.34862" lon="3.03742">
        <ele>734</ele>
        <time>2020-02-14T11:31:25.000Z</time>
      </trkpt>
      <trkpt lat="44.34853" lon="3.03731">
        <ele>735.5</ele>
        <time>2020-02-14T11:31:35.000Z</time>
      </trkpt>
      <trkpt lat="44.3484" lon="3.0371">
        <ele>732</ele>
        <time>2020-02-14T11:31:44.000Z</time>
      </trkpt>
      <trkpt lat="44.34834" lon="3.03698">
        <ele>731.2</ele>
        <time>2020-02-14T11:31:54.000Z</time>
      </trkpt>
      <trkpt lat="44.34827" lon="3.03686">
        <ele>730</ele>
        <time>2020-02-14T11:31:58.000Z</time>
      </trkpt>
      <trkpt lat="44.34805" lon="3.03653">
        <ele>728</ele>
        <time>2020-02-14T11:32:23.000Z</time>
      </trkpt>
      <trkpt lat="44.34773" lon="3.03622">
        <ele>718</ele>
        <time>2020-02-14T11:32:45.000Z</time>
      </trkpt>
      <trkpt lat="44.34765" lon="3.03611">
        <ele>718.6</ele>
        <time>2020-02-14T11:32:55.000Z</time>
      </trkpt>
      <trkpt lat="44.34749" lon="3.03599">
        <ele>712</ele>
        <time>2020-02-14T11:33:04.000Z</time>
      </trkpt>
      <trkpt lat="44.34721" lon="3.0358">
        <ele>712</ele>
        <time>2020-02-14T11:33:25.000Z</time>
      </trkpt>
      <trkpt lat="44.34694" lon="3.03567">
        <ele>709</ele>
        <time>2020-02-14T11:33:43.000Z</time>
      </trkpt>
      <trkpt lat="44.34673" lon="3.03558">
        <ele>705</ele>
        <time>2020-02-14T11:33:56.000Z</time>
      </trkpt>
      <trkpt lat="44.34654" lon="3.03547">
        <ele>705</ele>
        <time>2020-02-14T11:34:09.000Z</time>
      </trkpt>
      <trkpt lat="44.34631" lon="3.03538">
        <ele>705</ele>
        <time>2020-02-14T11:34:25.000Z</time>
      </trkpt>
      <trkpt lat="44.34599" lon="3.03527">
        <ele>701</ele>
        <time>2020-02-14T11:34:44.000Z</time>
      </trkpt>
      <trkpt lat="44.34578" lon="3.03522">
        <ele>701</ele>
        <time>2020-02-14T11:34:58.000Z</time>
      </trkpt>
      <trkpt lat="44.34538" lon="3.03504">
        <ele>698</ele>
        <time>2020-02-14T11:35:25.000Z</time>
      </trkpt>
      <trkpt lat="44.34519" lon="3.03492">
        <ele>693</ele>
        <time>2020-02-14T11:35:37.000Z</time>
      </trkpt>
      <trkpt lat="44.34493" lon="3.03479">
        <ele>691</ele>
        <time>2020-02-14T11:35:47.000Z</time>
      </trkpt>
      <trkpt lat="44.34459" lon="3.03461">
        <ele>683</ele>
        <time>2020-02-14T11:36:18.000Z</time>
      </trkpt>
      <trkpt lat="44.3443" lon="3.03438">
        <ele>680</ele>
        <time>2020-02-14T11:36:40.000Z</time>
      </trkpt>
      <trkpt lat="44.34421" lon="3.03428">
        <ele>686.5</ele>
        <time>2020-02-14T11:36:50.000Z</time>
      </trkpt>
      <trkpt lat="44.34411" lon="3.03419">
        <ele>680</ele>
        <time>2020-02-14T11:36:56.000Z</time>
      </trkpt>
      <trkpt lat="44.34403" lon="3.03413">
        <ele>684</ele>
        <time>2020-02-14T11:37:06.000Z</time>
      </trkpt>
      <trkpt lat="44.34378" lon="3.03381">
        <ele>679</ele>
        <time>2020-02-14T11:37:28.000Z</time>
      </trkpt>
      <trkpt lat="44.34372" lon="3.03371">
        <ele>678.9</ele>
        <time>2020-02-14T11:37:38.000Z</time>
      </trkpt>
      <trkpt lat="44.34355" lon="3.03355">
        <ele>678</ele>
        <time>2020-02-14T11:37:44.000Z</time>
      </trkpt>
      <trkpt lat="44.34345" lon="3.03348">
        <ele>674.8</ele>
        <time>2020-02-14T11:37:54.000Z</time>
      </trkpt>
      <trkpt lat="44.34307" lon="3.03317">
        <ele>665</ele>
        <time>2020-02-14T11:40:25.000Z</time>
      </trkpt>
      <trkpt lat="44.34301" lon="3.03306">
        <ele>670.3</ele>
        <time>2020-02-14T11:40:35.000Z</time>
      </trkpt>
      <trkpt lat="44.34287" lon="3.0329">
        <ele>663</ele>
        <time>2020-02-14T11:42:13.000Z</time>
      </trkpt>
      <trkpt lat="44.34268" lon="3.03277">
        <ele>662</ele>
        <time>2020-02-14T11:42:25.000Z</time>
      </trkpt>
      <trkpt lat="44.3426" lon="3.0327">
        <ele>666</ele>
        <time>2020-02-14T11:42:35.000Z</time>
      </trkpt>
      <trkpt lat="44.34242" lon="3.03256">
        <ele>662</ele>
        <time>2020-02-14T11:42:42.000Z</time>
      </trkpt>
      <trkpt lat="44.34225" lon="3.0324">
        <ele>659</ele>
        <time>2020-02-14T11:42:55.000Z</time>
      </trkpt>
      <trkpt lat="44.34214" lon="3.03234">
        <ele>661.5</ele>
        <time>2020-02-14T11:43:05.000Z</time>
      </trkpt>
      <trkpt lat="44.34203" lon="3.03231">
        <ele>654</ele>
        <time>2020-02-14T11:43:09.000Z</time>
      </trkpt>
      <trkpt lat="44.34197" lon="3.03228">
        <ele>659.8</ele>
        <time>2020-02-14T11:43:19.000Z</time>
      </trkpt>
      <trkpt lat="44.34187" lon="3.0322">
        <ele>658.4</ele>
        <time>2020-02-14T11:43:29.000Z</time>
      </trkpt>
      <trkpt lat="44.3418" lon="3.03208">
        <ele>646</ele>
        <time>2020-02-14T11:43:52.000Z</time>
      </trkpt>
      <trkpt lat="44.34173" lon="3.03194">
        <ele>655.9</ele>
        <time>2020-02-14T11:44:02.000Z</time>
      </trkpt>
      <trkpt lat="44.34168" lon="3.03182">
        <ele>643</ele>
        <time>2020-02-14T11:44:51.000Z</time>
      </trkpt>
      <trkpt lat="44.34171" lon="3.0317">
        <ele>655.3</ele>
        <time>2020-02-14T11:45:01.000Z</time>
      </trkpt>
      <trkpt lat="44.34172" lon="3.03159">
        <ele>654.6</ele>
        <time>2020-02-14T11:45:11.000Z</time>
      </trkpt>
      <trkpt lat="44.34165" lon="3.03155">
        <ele>641</ele>
        <time>2020-02-14T11:46:02.000Z</time>
      </trkpt>
      <trkpt lat="44.34155" lon="3.03164">
        <ele>651.8</ele>
        <time>2020-02-14T11:46:12.000Z</time>
      </trkpt>
      <trkpt lat="44.34142" lon="3.03183">
        <ele>641</ele>
        <time>2020-02-14T11:46:27.000Z</time>
      </trkpt>
      <trkpt lat="44.34133" lon="3.03194">
        <ele>650.1</ele>
        <time>2020-02-14T11:46:37.000Z</time>
      </trkpt>
      <trkpt lat="44.34122" lon="3.03198">
        <ele>640</ele>
        <time>2020-02-14T11:47:38.000Z</time>
      </trkpt>
      <trkpt lat="44.34113" lon="3.03195">
        <ele>647.3</ele>
        <time>2020-02-14T11:47:48.000Z</time>
      </trkpt>
      <trkpt lat="44.34102" lon="3.03195">
        <ele>640</ele>
        <time>2020-02-14T11:47:52.000Z</time>
      </trkpt>
      <trkpt lat="44.34091" lon="3.03193">
        <ele>646.9</ele>
        <time>2020-02-14T11:48:02.000Z</time>
      </trkpt>
      <trkpt lat="44.34081" lon="3.03189">
        <ele>639</ele>
        <time>2020-02-14T11:48:02.000Z</time>
      </trkpt>
      <trkpt lat="44.34071" lon="3.03187">
        <ele>646.3</ele>
        <time>2020-02-14T11:48:12.000Z</time>
      </trkpt>
      <trkpt lat="44.34052" lon="3.03176">
        <ele>638</ele>
        <time>2020-02-14T11:48:21.000Z</time>
      </trkpt>
      <trkpt lat="44.34033" lon="3.03162">
        <ele>638</ele>
        <time>2020-02-14T11:48:34.000Z</time>
      </trkpt>
      <trkpt lat="44.34027" lon="3.03151">
        <ele>646</ele>
        <time>2020-02-14T11:48:44.000Z</time>
      </trkpt>
      <trkpt lat="44.34015" lon="3.03132">
        <ele>637</ele>
        <time>2020-02-14T11:48:52.000Z</time>
      </trkpt>
      <trkpt lat="44.34006" lon="3.03126">
        <ele>647.1</ele>
        <time>2020-02-14T11:49:02.000Z</time>
      </trkpt>
      <trkpt lat="44.34" lon="3.03114">
        <ele>637</ele>
        <time>2020-02-14T11:49:50.000Z</time>
      </trkpt>
      <trkpt lat="44.33991" lon="3.03107">
        <ele>648.2</ele>
        <time>2020-02-14T11:50:00.000Z</time>
      </trkpt>
      <trkpt lat="44.33982" lon="3.03102">
        <ele>638</ele>
        <time>2020-02-14T11:50:28.000Z</time>
      </trkpt>
      <trkpt lat="44.33963" lon="3.03098">
        <ele>649.5</ele>
        <time>2020-02-14T11:50:38.000Z</time>
      </trkpt>
      <trkpt lat="44.33953" lon="3.03099">
        <ele>639</ele>
        <time>2020-02-14T11:50:48.000Z</time>
      </trkpt>
      <trkpt lat="44.33944" lon="3.03098">
        <ele>651.6</ele>
        <time>2020-02-14T11:50:58.000Z</time>
      </trkpt>
      <trkpt lat="44.33934" lon="3.03096">
        <ele>652.9</ele>
        <time>2020-02-14T11:51:08.000Z</time>
      </trkpt>
      <trkpt lat="44.33925" lon="3.03093">
        <ele>645</ele>
        <time>2020-02-14T11:51:09.000Z</time>
      </trkpt>
      <trkpt lat="44.33904" lon="3.03093">
        <ele>650</ele>
        <time>2020-02-14T11:51:29.000Z</time>
      </trkpt>
      <trkpt lat="44.33884" lon="3.03088">
        <ele>650</ele>
        <time>2020-02-14T11:51:47.000Z</time>
      </trkpt>
      <trkpt lat="44.33847" lon="3.03086">
        <ele>660</ele>
        <time>2020-02-14T11:52:17.000Z</time>
      </trkpt>
      <trkpt lat="44.33836" lon="3.03089">
        <ele>667.5</ele>
        <time>2020-02-14T11:52:27.000Z</time>
      </trkpt>
      <trkpt lat="44.33764" lon="3.03123">
        <ele>663</ele>
        <time>2020-02-14T11:53:23.000Z</time>
      </trkpt>
      <trkpt lat="44.33745" lon="3.03135">
        <ele>664</ele>
        <time>2020-02-14T11:55:20.000Z</time>
      </trkpt>
      <trkpt lat="44.33726" lon="3.0314">
        <ele>663</ele>
        <time>2020-02-14T11:55:30.000Z</time>
      </trkpt>
      <trkpt lat="44.33717" lon="3.03144">
        <ele>671</ele>
        <time>2020-02-14T11:55:40.000Z</time>
      </trkpt>
      <trkpt lat="44.3371" lon="3.03151">
        <ele>671</ele>
        <time>2020-02-14T11:55:50.000Z</time>
      </trkpt>
      <trkpt lat="44.33699" lon="3.03158">
        <ele>663</ele>
        <time>2020-02-14T11:55:51.000Z</time>
      </trkpt>
      <trkpt lat="44.33689" lon="3.03161">
        <ele>670.4</ele>
        <time>2020-02-14T11:56:01.000Z</time>
      </trkpt>
      <trkpt lat="44.33677" lon="3.03159">
        <ele>660</ele>
        <time>2020-02-14T11:56:10.000Z</time>
      </trkpt>
      <trkpt lat="44.33668" lon="3.03161">
        <ele>668.7</ele>
        <time>2020-02-14T11:56:20.000Z</time>
      </trkpt>
      <trkpt lat="44.33657" lon="3.03168">
        <ele>660</ele>
        <time>2020-02-14T11:56:23.000Z</time>
      </trkpt>
      <trkpt lat="44.33636" lon="3.03168">
        <ele>660</ele>
        <time>2020-02-14T11:57:08.000Z</time>
      </trkpt>
      <trkpt lat="44.33623" lon="3.03165">
        <ele>665.4</ele>
        <time>2020-02-14T11:57:18.000Z</time>
      </trkpt>
      <trkpt lat="44.33604" lon="3.03154">
        <ele>662</ele>
        <time>2020-02-14T11:57:29.000Z</time>
      </trkpt>
      <trkpt lat="44.33573" lon="3.03122">
        <ele>659</ele>
        <time>2020-02-14T12:00:06.000Z</time>
      </trkpt>
      <trkpt lat="44.33566" lon="3.03112">
        <ele>662.4</ele>
        <time>2020-02-14T12:00:16.000Z</time>
      </trkpt>
      <trkpt lat="44.33566" lon="3.03101">
        <ele>662.1</ele>
        <time>2020-02-14T12:00:26.000Z</time>
      </trkpt>
      <trkpt lat="44.33558" lon="3.03075">
        <ele>657</ele>
        <time>2020-02-14T12:01:20.000Z</time>
      </trkpt>
      <trkpt lat="44.33558" lon="3.03063">
        <ele>661</ele>
        <time>2020-02-14T12:01:30.000Z</time>
      </trkpt>
      <trkpt lat="44.33561" lon="3.03039">
        <ele>655</ele>
        <time>2020-02-14T12:02:06.000Z</time>
      </trkpt>
      <trkpt lat="44.33565" lon="3.03026">
        <ele>659.1</ele>
        <time>2020-02-14T12:02:16.000Z</time>
      </trkpt>
      <trkpt lat="44.33578" lon="3.03021">
        <ele>653</ele>
        <time>2020-02-14T12:02:54.000Z</time>
      </trkpt>
      <trkpt lat="44.33602" lon="3.02995">
        <ele>653</ele>
        <time>2020-02-14T12:03:50.000Z</time>
      </trkpt>
      <trkpt lat="44.33621" lon="3.02987">
        <ele>650</ele>
        <time>2020-02-14T12:04:09.000Z</time>
      </trkpt>
      <trkpt lat="44.33629" lon="3.0298">
        <ele>655.1</ele>
        <time>2020-02-14T12:04:19.000Z</time>
      </trkpt>
      <trkpt lat="44.33649" lon="3.02959">
        <ele>645</ele>
        <time>2020-02-14T12:05:42.000Z</time>
      </trkpt>
      <trkpt lat="44.33659" lon="3.02951">
        <ele>652.7</ele>
        <time>2020-02-14T12:05:52.000Z</time>
      </trkpt>
      <trkpt lat="44.33668" lon="3.02942">
        <ele>644</ele>
        <time>2020-02-14T12:05:57.000Z</time>
      </trkpt>
      <trkpt lat="44.33676" lon="3.02931">
        <ele>651.1</ele>
        <time>2020-02-14T12:06:07.000Z</time>
      </trkpt>
      <trkpt lat="44.33685" lon="3.02925">
        <ele>643</ele>
        <time>2020-02-14T12:06:14.000Z</time>
      </trkpt>
      <trkpt lat="44.33693" lon="3.02922">
        <ele>650.7</ele>
        <time>2020-02-14T12:06:24.000Z</time>
      </trkpt>
      <trkpt lat="44.337" lon="3.02916">
        <ele>650</ele>
        <time>2020-02-14T12:06:34.000Z</time>
      </trkpt>
      <trkpt lat="44.33712" lon="3.02914">
        <ele>642</ele>
        <time>2020-02-14T12:07:03.000Z</time>
      </trkpt>
      <trkpt lat="44.33723" lon="3.02907">
        <ele>649.3</ele>
        <time>2020-02-14T12:07:13.000Z</time>
      </trkpt>
      <trkpt lat="44.33728" lon="3.02903">
        <ele>648.9</ele>
        <time>2020-02-14T12:07:23.000Z</time>
      </trkpt>
      <trkpt lat="44.33749" lon="3.0287">
        <ele>641</ele>
        <time>2020-02-14T08:38:08.000Z</time>
      </trkpt>
    </trkseg>
  </trk>
</gpx>